<?xml version="1.0" encoding="UTF-8" standalone="no" ?>
<gpx xmlns="http://www.topografix.com/GPX/1/1" xmlns:xsi="http://www.w3.org/2001/XMLSchema-instance" xsi:schemaLocation="http://www.topografix.com/GPX/1/1 http://www.topografix.com/GPX/1/1/gpx.xsd" version="1.1" creator="VisuGPX - https://www.visugpx.com">
  <metadata>
    <name>RANDO DES BILLAUX RECONNAISSANCE </name>
    <desc><![CDATA[Ranxo des deux ponts le 02 04 2o18 l,après midi pont de Pierre et Chban delmas plus les quais 
]]></desc>
  </metadata>
  <trk>
    <name><![CDATA[Tracé 2 avr. 2018 13:51:17]]></name>
    <trkseg>
      <trkpt lat="44.839" lon="-0.55945">
        <ele>-9.1</ele>
        <time>2018-04-02T11:51:17Z</time>
      </trkpt>
      <trkpt lat="44.83894" lon="-0.55939">
        <ele>-9.5</ele>
        <time>2018-04-02T11:51:24Z</time>
      </trkpt>
      <trkpt lat="44.83902" lon="-0.55943">
        <ele>-9.5</ele>
        <time>2018-04-02T11:51:33Z</time>
      </trkpt>
      <trkpt lat="44.8391" lon="-0.55949">
        <ele>-9.6</ele>
        <time>2018-04-02T11:51:41Z</time>
      </trkpt>
      <trkpt lat="44.83916" lon="-0.55957">
        <ele>-11.5</ele>
        <time>2018-04-02T11:52:08Z</time>
      </trkpt>
      <trkpt lat="44.83924" lon="-0.55962">
        <ele>-12</ele>
        <time>2018-04-02T11:52:14Z</time>
      </trkpt>
      <trkpt lat="44.83931" lon="-0.55968">
        <ele>-12.6</ele>
        <time>2018-04-02T11:52:20Z</time>
      </trkpt>
      <trkpt lat="44.83938" lon="-0.55976">
        <ele>-13.6</ele>
        <time>2018-04-02T11:52:28Z</time>
      </trkpt>
      <trkpt lat="44.83945" lon="-0.55982">
        <ele>-15.2</ele>
        <time>2018-04-02T11:52:34Z</time>
      </trkpt>
      <trkpt lat="44.83952" lon="-0.55989">
        <ele>-17.3</ele>
        <time>2018-04-02T11:52:40Z</time>
      </trkpt>
      <trkpt lat="44.83959" lon="-0.55997">
        <ele>-19.4</ele>
        <time>2018-04-02T11:52:47Z</time>
      </trkpt>
      <trkpt lat="44.83965" lon="-0.56006">
        <ele>-23.2</ele>
        <time>2018-04-02T11:52:55Z</time>
      </trkpt>
      <trkpt lat="44.83972" lon="-0.56013">
        <ele>-26.7</ele>
        <time>2018-04-02T11:53:03Z</time>
      </trkpt>
      <trkpt lat="44.83978" lon="-0.56021">
        <ele>-30.5</ele>
        <time>2018-04-02T11:53:12Z</time>
      </trkpt>
      <trkpt lat="44.83984" lon="-0.56029">
        <ele>-33.4</ele>
        <time>2018-04-02T11:53:20Z</time>
      </trkpt>
      <trkpt lat="44.83989" lon="-0.5604">
        <ele>-36.5</ele>
        <time>2018-04-02T11:53:29Z</time>
      </trkpt>
      <trkpt lat="44.83996" lon="-0.56047">
        <ele>-39</ele>
        <time>2018-04-02T11:53:37Z</time>
      </trkpt>
      <trkpt lat="44.84003" lon="-0.56054">
        <ele>-41.6</ele>
        <time>2018-04-02T11:53:45Z</time>
      </trkpt>
      <trkpt lat="44.84009" lon="-0.56062">
        <ele>-44.1</ele>
        <time>2018-04-02T11:53:53Z</time>
      </trkpt>
      <trkpt lat="44.84015" lon="-0.56071">
        <ele>-46.7</ele>
        <time>2018-04-02T11:54:02Z</time>
      </trkpt>
      <trkpt lat="44.84021" lon="-0.5608">
        <ele>-49.6</ele>
        <time>2018-04-02T11:54:10Z</time>
      </trkpt>
      <trkpt lat="44.84028" lon="-0.56086">
        <ele>-50.5</ele>
        <time>2018-04-02T11:54:17Z</time>
      </trkpt>
      <trkpt lat="44.84035" lon="-0.56093">
        <ele>-51.3</ele>
        <time>2018-04-02T11:54:24Z</time>
      </trkpt>
      <trkpt lat="44.84043" lon="-0.56098">
        <ele>-50.1</ele>
        <time>2018-04-02T11:54:30Z</time>
      </trkpt>
      <trkpt lat="44.8405" lon="-0.56105">
        <ele>-50.5</ele>
        <time>2018-04-02T11:54:36Z</time>
      </trkpt>
      <trkpt lat="44.84057" lon="-0.56111">
        <ele>-50.4</ele>
        <time>2018-04-02T11:54:44Z</time>
      </trkpt>
      <trkpt lat="44.84063" lon="-0.5612">
        <ele>-50.4</ele>
        <time>2018-04-02T11:54:51Z</time>
      </trkpt>
      <trkpt lat="44.8407" lon="-0.56127">
        <ele>-50.4</ele>
        <time>2018-04-02T11:54:58Z</time>
      </trkpt>
      <trkpt lat="44.84076" lon="-0.56135">
        <ele>-51.4</ele>
        <time>2018-04-02T11:55:05Z</time>
      </trkpt>
      <trkpt lat="44.84082" lon="-0.56144">
        <ele>-51.7</ele>
        <time>2018-04-02T11:55:13Z</time>
      </trkpt>
      <trkpt lat="44.84089" lon="-0.56151">
        <ele>-50.9</ele>
        <time>2018-04-02T11:55:20Z</time>
      </trkpt>
      <trkpt lat="44.84096" lon="-0.56157">
        <ele>-50.6</ele>
        <time>2018-04-02T11:55:26Z</time>
      </trkpt>
      <trkpt lat="44.84101" lon="-0.56164">
        <ele>-50.8</ele>
        <time>2018-04-02T11:55:33Z</time>
      </trkpt>
      <trkpt lat="44.84105" lon="-0.56175">
        <ele>-52.3</ele>
        <time>2018-04-02T11:55:40Z</time>
      </trkpt>
      <trkpt lat="44.84108" lon="-0.56187">
        <ele>-52.7</ele>
        <time>2018-04-02T11:55:48Z</time>
      </trkpt>
      <trkpt lat="44.8411" lon="-0.56198">
        <ele>-53.2</ele>
        <time>2018-04-02T11:55:55Z</time>
      </trkpt>
      <trkpt lat="44.84113" lon="-0.56209">
        <ele>-53.5</ele>
        <time>2018-04-02T11:56:01Z</time>
      </trkpt>
      <trkpt lat="44.84119" lon="-0.56218">
        <ele>-55.1</ele>
        <time>2018-04-02T11:56:09Z</time>
      </trkpt>
      <trkpt lat="44.84124" lon="-0.56226">
        <ele>-56.8</ele>
        <time>2018-04-02T11:56:17Z</time>
      </trkpt>
      <trkpt lat="44.8413" lon="-0.56234">
        <ele>-57.7</ele>
        <time>2018-04-02T11:56:24Z</time>
      </trkpt>
      <trkpt lat="44.84136" lon="-0.56241">
        <ele>-57.7</ele>
        <time>2018-04-02T11:56:30Z</time>
      </trkpt>
      <trkpt lat="44.84142" lon="-0.56249">
        <ele>-55.1</ele>
        <time>2018-04-02T11:56:36Z</time>
      </trkpt>
      <trkpt lat="44.84144" lon="-0.56261">
        <ele>-57.6</ele>
        <time>2018-04-02T11:56:43Z</time>
      </trkpt>
      <trkpt lat="44.84148" lon="-0.56271">
        <ele>-55.8</ele>
        <time>2018-04-02T11:56:50Z</time>
      </trkpt>
      <trkpt lat="44.84154" lon="-0.5628">
        <ele>-57.3</ele>
        <time>2018-04-02T11:56:58Z</time>
      </trkpt>
      <trkpt lat="44.8416" lon="-0.56288">
        <ele>-56.5</ele>
        <time>2018-04-02T11:57:05Z</time>
      </trkpt>
      <trkpt lat="44.84167" lon="-0.56297">
        <ele>-55.8</ele>
        <time>2018-04-02T11:57:13Z</time>
      </trkpt>
      <trkpt lat="44.84174" lon="-0.56305">
        <ele>-55.7</ele>
        <time>2018-04-02T11:57:21Z</time>
      </trkpt>
      <trkpt lat="44.8418" lon="-0.56311">
        <ele>-54</ele>
        <time>2018-04-02T11:57:27Z</time>
      </trkpt>
      <trkpt lat="44.84186" lon="-0.56321">
        <ele>-55.4</ele>
        <time>2018-04-02T11:57:35Z</time>
      </trkpt>
      <trkpt lat="44.84193" lon="-0.56327">
        <ele>-55.1</ele>
        <time>2018-04-02T11:57:42Z</time>
      </trkpt>
      <trkpt lat="44.84199" lon="-0.56334">
        <ele>-54.1</ele>
        <time>2018-04-02T11:57:49Z</time>
      </trkpt>
      <trkpt lat="44.84206" lon="-0.5634">
        <ele>-53.9</ele>
        <time>2018-04-02T11:57:55Z</time>
      </trkpt>
      <trkpt lat="44.84213" lon="-0.56346">
        <ele>-53</ele>
        <time>2018-04-02T11:58:01Z</time>
      </trkpt>
      <trkpt lat="44.8422" lon="-0.56352">
        <ele>-54.8</ele>
        <time>2018-04-02T11:58:08Z</time>
      </trkpt>
      <trkpt lat="44.84227" lon="-0.56358">
        <ele>-57.5</ele>
        <time>2018-04-02T11:58:17Z</time>
      </trkpt>
      <trkpt lat="44.84234" lon="-0.56363">
        <ele>-56.8</ele>
        <time>2018-04-02T11:58:24Z</time>
      </trkpt>
      <trkpt lat="44.84242" lon="-0.56368">
        <ele>-58.4</ele>
        <time>2018-04-02T11:58:31Z</time>
      </trkpt>
      <trkpt lat="44.84249" lon="-0.56375">
        <ele>-58.1</ele>
        <time>2018-04-02T11:58:39Z</time>
      </trkpt>
      <trkpt lat="44.84256" lon="-0.5638">
        <ele>-57.7</ele>
        <time>2018-04-02T11:58:45Z</time>
      </trkpt>
      <trkpt lat="44.84264" lon="-0.56386">
        <ele>-58.8</ele>
        <time>2018-04-02T11:58:52Z</time>
      </trkpt>
      <trkpt lat="44.84271" lon="-0.56392">
        <ele>-60.4</ele>
        <time>2018-04-02T11:58:59Z</time>
      </trkpt>
      <trkpt lat="44.84279" lon="-0.56397">
        <ele>-61.2</ele>
        <time>2018-04-02T11:59:07Z</time>
      </trkpt>
      <trkpt lat="44.84286" lon="-0.56402">
        <ele>-61.4</ele>
        <time>2018-04-02T11:59:14Z</time>
      </trkpt>
      <trkpt lat="44.84293" lon="-0.56407">
        <ele>-62.9</ele>
        <time>2018-04-02T11:59:21Z</time>
      </trkpt>
      <trkpt lat="44.84301" lon="-0.56413">
        <ele>-65.5</ele>
        <time>2018-04-02T11:59:29Z</time>
      </trkpt>
      <trkpt lat="44.84309" lon="-0.56417">
        <ele>-65.8</ele>
        <time>2018-04-02T11:59:37Z</time>
      </trkpt>
      <trkpt lat="44.84317" lon="-0.56423">
        <ele>-65.5</ele>
        <time>2018-04-02T11:59:44Z</time>
      </trkpt>
      <trkpt lat="44.84323" lon="-0.56429">
        <ele>-67.5</ele>
        <time>2018-04-02T11:59:52Z</time>
      </trkpt>
      <trkpt lat="44.84331" lon="-0.56434">
        <ele>-66.4</ele>
        <time>2018-04-02T11:59:59Z</time>
      </trkpt>
      <trkpt lat="44.84339" lon="-0.56436">
        <ele>-61.2</ele>
        <time>2018-04-02T12:00:06Z</time>
      </trkpt>
      <trkpt lat="44.84344" lon="-0.56436">
        <ele>-58.3</ele>
        <time>2018-04-02T12:00:35Z</time>
      </trkpt>
      <trkpt lat="44.84353" lon="-0.56436">
        <ele>-52.9</ele>
        <time>2018-04-02T12:00:39Z</time>
      </trkpt>
      <trkpt lat="44.8436" lon="-0.56442">
        <ele>-55.5</ele>
        <time>2018-04-02T12:00:45Z</time>
      </trkpt>
      <trkpt lat="44.84367" lon="-0.56447">
        <ele>-57.6</ele>
        <time>2018-04-02T12:00:51Z</time>
      </trkpt>
      <trkpt lat="44.84374" lon="-0.56451">
        <ele>-56.8</ele>
        <time>2018-04-02T12:00:56Z</time>
      </trkpt>
      <trkpt lat="44.84382" lon="-0.56454">
        <ele>-56.4</ele>
        <time>2018-04-02T12:01:02Z</time>
      </trkpt>
      <trkpt lat="44.8439" lon="-0.56457">
        <ele>-57.4</ele>
        <time>2018-04-02T12:01:07Z</time>
      </trkpt>
      <trkpt lat="44.84398" lon="-0.56458">
        <ele>-57.6</ele>
        <time>2018-04-02T12:01:14Z</time>
      </trkpt>
      <trkpt lat="44.84406" lon="-0.56461">
        <ele>-57.8</ele>
        <time>2018-04-02T12:01:22Z</time>
      </trkpt>
      <trkpt lat="44.84414" lon="-0.56465">
        <ele>-59.1</ele>
        <time>2018-04-02T12:01:29Z</time>
      </trkpt>
      <trkpt lat="44.84423" lon="-0.56468">
        <ele>-59.7</ele>
        <time>2018-04-02T12:01:37Z</time>
      </trkpt>
      <trkpt lat="44.84431" lon="-0.56474">
        <ele>-60.1</ele>
        <time>2018-04-02T12:01:46Z</time>
      </trkpt>
      <trkpt lat="44.84438" lon="-0.5648">
        <ele>-57.4</ele>
        <time>2018-04-02T12:01:54Z</time>
      </trkpt>
      <trkpt lat="44.84446" lon="-0.56485">
        <ele>-57.7</ele>
        <time>2018-04-02T12:02:01Z</time>
      </trkpt>
      <trkpt lat="44.84454" lon="-0.56487">
        <ele>-59.7</ele>
        <time>2018-04-02T12:02:08Z</time>
      </trkpt>
      <trkpt lat="44.84461" lon="-0.56491">
        <ele>-63</ele>
        <time>2018-04-02T12:02:15Z</time>
      </trkpt>
      <trkpt lat="44.84469" lon="-0.56494">
        <ele>-64</ele>
        <time>2018-04-02T12:02:22Z</time>
      </trkpt>
      <trkpt lat="44.84477" lon="-0.56499">
        <ele>-66.2</ele>
        <time>2018-04-02T12:02:32Z</time>
      </trkpt>
      <trkpt lat="44.84486" lon="-0.56503">
        <ele>-66.1</ele>
        <time>2018-04-02T12:02:39Z</time>
      </trkpt>
      <trkpt lat="44.84494" lon="-0.56505">
        <ele>-65.3</ele>
        <time>2018-04-02T12:02:48Z</time>
      </trkpt>
      <trkpt lat="44.84503" lon="-0.5651">
        <ele>-64.2</ele>
        <time>2018-04-02T12:02:56Z</time>
      </trkpt>
      <trkpt lat="44.84511" lon="-0.56515">
        <ele>-63.4</ele>
        <time>2018-04-02T12:03:04Z</time>
      </trkpt>
      <trkpt lat="44.84519" lon="-0.56518">
        <ele>-62.7</ele>
        <time>2018-04-02T12:03:12Z</time>
      </trkpt>
      <trkpt lat="44.84528" lon="-0.56519">
        <ele>-64.1</ele>
        <time>2018-04-02T12:03:19Z</time>
      </trkpt>
      <trkpt lat="44.84535" lon="-0.56525">
        <ele>-62.5</ele>
        <time>2018-04-02T12:03:26Z</time>
      </trkpt>
      <trkpt lat="44.84542" lon="-0.5653">
        <ele>-61.8</ele>
        <time>2018-04-02T12:03:33Z</time>
      </trkpt>
      <trkpt lat="44.8455" lon="-0.56534">
        <ele>-61.4</ele>
        <time>2018-04-02T12:03:40Z</time>
      </trkpt>
      <trkpt lat="44.84558" lon="-0.56535">
        <ele>-62.6</ele>
        <time>2018-04-02T12:03:48Z</time>
      </trkpt>
      <trkpt lat="44.84567" lon="-0.56537">
        <ele>-63.6</ele>
        <time>2018-04-02T12:03:57Z</time>
      </trkpt>
      <trkpt lat="44.84575" lon="-0.5654">
        <ele>-64.6</ele>
        <time>2018-04-02T12:04:04Z</time>
      </trkpt>
      <trkpt lat="44.84583" lon="-0.56543">
        <ele>-63.8</ele>
        <time>2018-04-02T12:04:10Z</time>
      </trkpt>
      <trkpt lat="44.84591" lon="-0.56543">
        <ele>-63</ele>
        <time>2018-04-02T12:04:15Z</time>
      </trkpt>
      <trkpt lat="44.846" lon="-0.56543">
        <ele>-61.2</ele>
        <time>2018-04-02T12:04:21Z</time>
      </trkpt>
      <trkpt lat="44.84608" lon="-0.56541">
        <ele>-61.1</ele>
        <time>2018-04-02T12:04:27Z</time>
      </trkpt>
      <trkpt lat="44.84617" lon="-0.5654">
        <ele>-58.2</ele>
        <time>2018-04-02T12:04:32Z</time>
      </trkpt>
      <trkpt lat="44.84625" lon="-0.56539">
        <ele>-55.4</ele>
        <time>2018-04-02T12:04:38Z</time>
      </trkpt>
      <trkpt lat="44.84633" lon="-0.56543">
        <ele>-53.6</ele>
        <time>2018-04-02T12:04:46Z</time>
      </trkpt>
      <trkpt lat="44.84641" lon="-0.56546">
        <ele>-53.6</ele>
        <time>2018-04-02T12:04:53Z</time>
      </trkpt>
      <trkpt lat="44.84649" lon="-0.56547">
        <ele>-55</ele>
        <time>2018-04-02T12:05:00Z</time>
      </trkpt>
      <trkpt lat="44.84657" lon="-0.56546">
        <ele>-55.8</ele>
        <time>2018-04-02T12:05:10Z</time>
      </trkpt>
      <trkpt lat="44.84665" lon="-0.56546">
        <ele>-58.1</ele>
        <time>2018-04-02T12:05:16Z</time>
      </trkpt>
      <trkpt lat="44.84673" lon="-0.56543">
        <ele>-58.7</ele>
        <time>2018-04-02T12:05:23Z</time>
      </trkpt>
      <trkpt lat="44.84681" lon="-0.56542">
        <ele>-57.6</ele>
        <time>2018-04-02T12:05:28Z</time>
      </trkpt>
      <trkpt lat="44.84689" lon="-0.56539">
        <ele>-56.3</ele>
        <time>2018-04-02T12:05:35Z</time>
      </trkpt>
      <trkpt lat="44.84698" lon="-0.56535">
        <ele>-57.3</ele>
        <time>2018-04-02T12:05:43Z</time>
      </trkpt>
      <trkpt lat="44.84706" lon="-0.56533">
        <ele>-56.6</ele>
        <time>2018-04-02T12:05:50Z</time>
      </trkpt>
      <trkpt lat="44.84714" lon="-0.5653">
        <ele>-55.8</ele>
        <time>2018-04-02T12:05:56Z</time>
      </trkpt>
      <trkpt lat="44.84721" lon="-0.56528">
        <ele>-56.1</ele>
        <time>2018-04-02T12:06:02Z</time>
      </trkpt>
      <trkpt lat="44.8473" lon="-0.56525">
        <ele>-56.8</ele>
        <time>2018-04-02T12:06:09Z</time>
      </trkpt>
      <trkpt lat="44.84738" lon="-0.56522">
        <ele>-54.7</ele>
        <time>2018-04-02T12:06:16Z</time>
      </trkpt>
      <trkpt lat="44.84745" lon="-0.56519">
        <ele>-53.8</ele>
        <time>2018-04-02T12:06:24Z</time>
      </trkpt>
      <trkpt lat="44.84753" lon="-0.56514">
        <ele>-52.6</ele>
        <time>2018-04-02T12:06:31Z</time>
      </trkpt>
      <trkpt lat="44.8476" lon="-0.5651">
        <ele>-50.7</ele>
        <time>2018-04-02T12:06:37Z</time>
      </trkpt>
      <trkpt lat="44.84768" lon="-0.56504">
        <ele>-49.8</ele>
        <time>2018-04-02T12:06:43Z</time>
      </trkpt>
      <trkpt lat="44.84775" lon="-0.565">
        <ele>-49.9</ele>
        <time>2018-04-02T12:06:49Z</time>
      </trkpt>
      <trkpt lat="44.84783" lon="-0.56496">
        <ele>-49.6</ele>
        <time>2018-04-02T12:06:55Z</time>
      </trkpt>
      <trkpt lat="44.8479" lon="-0.56494">
        <ele>-50.8</ele>
        <time>2018-04-02T12:07:02Z</time>
      </trkpt>
      <trkpt lat="44.84798" lon="-0.56491">
        <ele>-51.6</ele>
        <time>2018-04-02T12:07:09Z</time>
      </trkpt>
      <trkpt lat="44.84806" lon="-0.56487">
        <ele>-49.2</ele>
        <time>2018-04-02T12:07:16Z</time>
      </trkpt>
      <trkpt lat="44.84815" lon="-0.56484">
        <ele>-49.6</ele>
        <time>2018-04-02T12:07:23Z</time>
      </trkpt>
      <trkpt lat="44.84823" lon="-0.56481">
        <ele>-50.4</ele>
        <time>2018-04-02T12:07:29Z</time>
      </trkpt>
      <trkpt lat="44.8483" lon="-0.56478">
        <ele>-50</ele>
        <time>2018-04-02T12:07:36Z</time>
      </trkpt>
      <trkpt lat="44.84839" lon="-0.56473">
        <ele>-51.9</ele>
        <time>2018-04-02T12:07:45Z</time>
      </trkpt>
      <trkpt lat="44.84847" lon="-0.5647">
        <ele>-53</ele>
        <time>2018-04-02T12:07:53Z</time>
      </trkpt>
      <trkpt lat="44.84854" lon="-0.56464">
        <ele>-52.5</ele>
        <time>2018-04-02T12:08:02Z</time>
      </trkpt>
      <trkpt lat="44.84862" lon="-0.56461">
        <ele>-52.1</ele>
        <time>2018-04-02T12:08:10Z</time>
      </trkpt>
      <trkpt lat="44.8487" lon="-0.56459">
        <ele>-48.1</ele>
        <time>2018-04-02T12:08:15Z</time>
      </trkpt>
      <trkpt lat="44.84878" lon="-0.56456">
        <ele>-49.3</ele>
        <time>2018-04-02T12:08:22Z</time>
      </trkpt>
      <trkpt lat="44.84886" lon="-0.56452">
        <ele>-52.9</ele>
        <time>2018-04-02T12:08:29Z</time>
      </trkpt>
      <trkpt lat="44.84894" lon="-0.56447">
        <ele>-53.6</ele>
        <time>2018-04-02T12:08:34Z</time>
      </trkpt>
      <trkpt lat="44.84899" lon="-0.56438">
        <ele>-54.7</ele>
        <time>2018-04-02T12:08:41Z</time>
      </trkpt>
      <trkpt lat="44.84896" lon="-0.56426">
        <ele>-54.4</ele>
        <time>2018-04-02T12:08:48Z</time>
      </trkpt>
      <trkpt lat="44.84892" lon="-0.56417">
        <ele>-53.4</ele>
        <time>2018-04-02T12:08:56Z</time>
      </trkpt>
      <trkpt lat="44.84887" lon="-0.56408">
        <ele>-54</ele>
        <time>2018-04-02T12:09:02Z</time>
      </trkpt>
      <trkpt lat="44.8488" lon="-0.56399">
        <ele>-53.4</ele>
        <time>2018-04-02T12:09:09Z</time>
      </trkpt>
      <trkpt lat="44.84875" lon="-0.56391">
        <ele>-54.1</ele>
        <time>2018-04-02T12:09:16Z</time>
      </trkpt>
      <trkpt lat="44.84874" lon="-0.56379">
        <ele>-55.2</ele>
        <time>2018-04-02T12:09:24Z</time>
      </trkpt>
      <trkpt lat="44.84879" lon="-0.5637">
        <ele>-55.9</ele>
        <time>2018-04-02T12:09:32Z</time>
      </trkpt>
      <trkpt lat="44.84886" lon="-0.56363">
        <ele>-54</ele>
        <time>2018-04-02T12:09:39Z</time>
      </trkpt>
      <trkpt lat="44.84894" lon="-0.56357">
        <ele>-52.9</ele>
        <time>2018-04-02T12:09:47Z</time>
      </trkpt>
      <trkpt lat="44.849" lon="-0.56348">
        <ele>-53.4</ele>
        <time>2018-04-02T12:09:55Z</time>
      </trkpt>
      <trkpt lat="44.84906" lon="-0.5634">
        <ele>-52.7</ele>
        <time>2018-04-02T12:10:02Z</time>
      </trkpt>
      <trkpt lat="44.84912" lon="-0.56333">
        <ele>-52.4</ele>
        <time>2018-04-02T12:10:08Z</time>
      </trkpt>
      <trkpt lat="44.84919" lon="-0.56326">
        <ele>-50</ele>
        <time>2018-04-02T12:10:14Z</time>
      </trkpt>
      <trkpt lat="44.84924" lon="-0.56317">
        <ele>-41.7</ele>
        <time>2018-04-02T12:10:23Z</time>
      </trkpt>
      <trkpt lat="44.84931" lon="-0.56311">
        <ele>-40.3</ele>
        <time>2018-04-02T12:10:31Z</time>
      </trkpt>
      <trkpt lat="44.84938" lon="-0.56307">
        <ele>-39.6</ele>
        <time>2018-04-02T12:10:37Z</time>
      </trkpt>
      <trkpt lat="44.84946" lon="-0.56301">
        <ele>-40.8</ele>
        <time>2018-04-02T12:10:43Z</time>
      </trkpt>
      <trkpt lat="44.84954" lon="-0.56297">
        <ele>-41.5</ele>
        <time>2018-04-02T12:10:50Z</time>
      </trkpt>
      <trkpt lat="44.84961" lon="-0.5629">
        <ele>-47.4</ele>
        <time>2018-04-02T12:11:08Z</time>
      </trkpt>
      <trkpt lat="44.84969" lon="-0.56295">
        <ele>-52.2</ele>
        <time>2018-04-02T12:12:08Z</time>
      </trkpt>
      <trkpt lat="44.84976" lon="-0.56287">
        <ele>-50.5</ele>
        <time>2018-04-02T12:14:52Z</time>
      </trkpt>
      <trkpt lat="44.8498" lon="-0.56278">
        <ele>-53.8</ele>
        <time>2018-04-02T12:15:00Z</time>
      </trkpt>
      <trkpt lat="44.84985" lon="-0.56268">
        <ele>-56.9</ele>
        <time>2018-04-02T12:15:07Z</time>
      </trkpt>
      <trkpt lat="44.84991" lon="-0.5626">
        <ele>-54.9</ele>
        <time>2018-04-02T12:15:13Z</time>
      </trkpt>
      <trkpt lat="44.84996" lon="-0.56252">
        <ele>-53.5</ele>
        <time>2018-04-02T12:15:19Z</time>
      </trkpt>
      <trkpt lat="44.85001" lon="-0.56243">
        <ele>-53.2</ele>
        <time>2018-04-02T12:15:25Z</time>
      </trkpt>
      <trkpt lat="44.85006" lon="-0.56233">
        <ele>-54</ele>
        <time>2018-04-02T12:15:32Z</time>
      </trkpt>
      <trkpt lat="44.85011" lon="-0.56224">
        <ele>-54.6</ele>
        <time>2018-04-02T12:15:43Z</time>
      </trkpt>
      <trkpt lat="44.85017" lon="-0.56216">
        <ele>-55.8</ele>
        <time>2018-04-02T12:15:51Z</time>
      </trkpt>
      <trkpt lat="44.85024" lon="-0.5621">
        <ele>-54.2</ele>
        <time>2018-04-02T12:15:56Z</time>
      </trkpt>
      <trkpt lat="44.85029" lon="-0.56201">
        <ele>-55.4</ele>
        <time>2018-04-02T12:16:03Z</time>
      </trkpt>
      <trkpt lat="44.85027" lon="-0.56191">
        <ele>-52.4</ele>
        <time>2018-04-02T12:16:25Z</time>
      </trkpt>
      <trkpt lat="44.8502" lon="-0.56183">
        <ele>-53.1</ele>
        <time>2018-04-02T12:16:31Z</time>
      </trkpt>
      <trkpt lat="44.85015" lon="-0.56174">
        <ele>-52.7</ele>
        <time>2018-04-02T12:16:38Z</time>
      </trkpt>
      <trkpt lat="44.8501" lon="-0.56164">
        <ele>-50.1</ele>
        <time>2018-04-02T12:16:45Z</time>
      </trkpt>
      <trkpt lat="44.85004" lon="-0.56156">
        <ele>-48.8</ele>
        <time>2018-04-02T12:16:52Z</time>
      </trkpt>
      <trkpt lat="44.84999" lon="-0.56147">
        <ele>-51.2</ele>
        <time>2018-04-02T12:17:00Z</time>
      </trkpt>
      <trkpt lat="44.84996" lon="-0.56137">
        <ele>-51.8</ele>
        <time>2018-04-02T12:17:07Z</time>
      </trkpt>
      <trkpt lat="44.84991" lon="-0.56129">
        <ele>-52.7</ele>
        <time>2018-04-02T12:17:12Z</time>
      </trkpt>
      <trkpt lat="44.84984" lon="-0.5612">
        <ele>-53.5</ele>
        <time>2018-04-02T12:17:19Z</time>
      </trkpt>
      <trkpt lat="44.84977" lon="-0.56114">
        <ele>-52.6</ele>
        <time>2018-04-02T12:17:26Z</time>
      </trkpt>
      <trkpt lat="44.84969" lon="-0.56111">
        <ele>-52.4</ele>
        <time>2018-04-02T12:17:32Z</time>
      </trkpt>
      <trkpt lat="44.84962" lon="-0.5611">
        <ele>-48.2</ele>
        <time>2018-04-02T12:18:11Z</time>
      </trkpt>
      <trkpt lat="44.84965" lon="-0.56096">
        <ele>-50.8</ele>
        <time>2018-04-02T12:18:16Z</time>
      </trkpt>
      <trkpt lat="44.84957" lon="-0.56093">
        <ele>-50.3</ele>
        <time>2018-04-02T12:18:27Z</time>
      </trkpt>
      <trkpt lat="44.84951" lon="-0.56083">
        <ele>-50.9</ele>
        <time>2018-04-02T12:18:36Z</time>
      </trkpt>
      <trkpt lat="44.84944" lon="-0.56077">
        <ele>-49.3</ele>
        <time>2018-04-02T12:18:44Z</time>
      </trkpt>
      <trkpt lat="44.84944" lon="-0.56065">
        <ele>-48.1</ele>
        <time>2018-04-02T12:18:51Z</time>
      </trkpt>
      <trkpt lat="44.84948" lon="-0.56055">
        <ele>-47.6</ele>
        <time>2018-04-02T12:18:58Z</time>
      </trkpt>
      <trkpt lat="44.8495" lon="-0.56043">
        <ele>-45.4</ele>
        <time>2018-04-02T12:19:07Z</time>
      </trkpt>
      <trkpt lat="44.84956" lon="-0.56034">
        <ele>-43.1</ele>
        <time>2018-04-02T12:19:25Z</time>
      </trkpt>
      <trkpt lat="44.84965" lon="-0.56033">
        <ele>-46.2</ele>
        <time>2018-04-02T12:19:35Z</time>
      </trkpt>
      <trkpt lat="44.84972" lon="-0.56026">
        <ele>-41.2</ele>
        <time>2018-04-02T12:19:50Z</time>
      </trkpt>
      <trkpt lat="44.84974" lon="-0.56014">
        <ele>-49.5</ele>
        <time>2018-04-02T12:20:06Z</time>
      </trkpt>
      <trkpt lat="44.84973" lon="-0.56026">
        <ele>-57.3</ele>
        <time>2018-04-02T12:20:39Z</time>
      </trkpt>
      <trkpt lat="44.84968" lon="-0.56036">
        <ele>-51.9</ele>
        <time>2018-04-02T12:20:48Z</time>
      </trkpt>
      <trkpt lat="44.84962" lon="-0.56045">
        <ele>-52.9</ele>
        <time>2018-04-02T12:21:01Z</time>
      </trkpt>
      <trkpt lat="44.8496" lon="-0.56049">
        <ele>-52.6</ele>
        <time>2018-04-02T12:21:10Z</time>
      </trkpt>
      <trkpt lat="44.84947" lon="-0.56053">
        <ele>-45.6</ele>
        <time>2018-04-02T12:21:14Z</time>
      </trkpt>
      <trkpt lat="44.8494" lon="-0.56054">
        <ele>-44.6</ele>
        <time>2018-04-02T12:21:18Z</time>
      </trkpt>
      <trkpt lat="44.84931" lon="-0.56054">
        <ele>-45</ele>
        <time>2018-04-02T12:21:27Z</time>
      </trkpt>
      <trkpt lat="44.84924" lon="-0.56047">
        <ele>-49.7</ele>
        <time>2018-04-02T12:21:42Z</time>
      </trkpt>
      <trkpt lat="44.84917" lon="-0.56039">
        <ele>-49.4</ele>
        <time>2018-04-02T12:21:51Z</time>
      </trkpt>
      <trkpt lat="44.8491" lon="-0.56033">
        <ele>-48.1</ele>
        <time>2018-04-02T12:21:59Z</time>
      </trkpt>
      <trkpt lat="44.84904" lon="-0.56025">
        <ele>-47.2</ele>
        <time>2018-04-02T12:22:06Z</time>
      </trkpt>
      <trkpt lat="44.849" lon="-0.56016">
        <ele>-45.4</ele>
        <time>2018-04-02T12:22:12Z</time>
      </trkpt>
      <trkpt lat="44.84896" lon="-0.56005">
        <ele>-43.8</ele>
        <time>2018-04-02T12:22:19Z</time>
      </trkpt>
      <trkpt lat="44.84891" lon="-0.55995">
        <ele>-46.7</ele>
        <time>2018-04-02T12:22:28Z</time>
      </trkpt>
      <trkpt lat="44.84885" lon="-0.55987">
        <ele>-46</ele>
        <time>2018-04-02T12:22:36Z</time>
      </trkpt>
      <trkpt lat="44.8488" lon="-0.55978">
        <ele>-47</ele>
        <time>2018-04-02T12:22:43Z</time>
      </trkpt>
      <trkpt lat="44.84873" lon="-0.5597">
        <ele>-51</ele>
        <time>2018-04-02T12:22:51Z</time>
      </trkpt>
      <trkpt lat="44.84868" lon="-0.55961">
        <ele>-52.9</ele>
        <time>2018-04-02T12:22:59Z</time>
      </trkpt>
      <trkpt lat="44.84863" lon="-0.55951">
        <ele>-52.6</ele>
        <time>2018-04-02T12:23:07Z</time>
      </trkpt>
      <trkpt lat="44.8486" lon="-0.5594">
        <ele>-51.5</ele>
        <time>2018-04-02T12:23:15Z</time>
      </trkpt>
      <trkpt lat="44.84861" lon="-0.55929">
        <ele>-51.7</ele>
        <time>2018-04-02T12:23:21Z</time>
      </trkpt>
      <trkpt lat="44.84865" lon="-0.55919">
        <ele>-53.3</ele>
        <time>2018-04-02T12:23:28Z</time>
      </trkpt>
      <trkpt lat="44.8487" lon="-0.55909">
        <ele>-54.4</ele>
        <time>2018-04-02T12:23:35Z</time>
      </trkpt>
      <trkpt lat="44.84877" lon="-0.55902">
        <ele>-57</ele>
        <time>2018-04-02T12:23:43Z</time>
      </trkpt>
      <trkpt lat="44.84883" lon="-0.55894">
        <ele>-59.7</ele>
        <time>2018-04-02T12:23:51Z</time>
      </trkpt>
      <trkpt lat="44.84885" lon="-0.55882">
        <ele>-59.9</ele>
        <time>2018-04-02T12:23:58Z</time>
      </trkpt>
      <trkpt lat="44.8489" lon="-0.55872">
        <ele>-54.7</ele>
        <time>2018-04-02T12:24:07Z</time>
      </trkpt>
      <trkpt lat="44.84882" lon="-0.55874">
        <ele>-40.9</ele>
        <time>2018-04-02T12:25:06Z</time>
      </trkpt>
      <trkpt lat="44.84875" lon="-0.55883">
        <ele>-43.7</ele>
        <time>2018-04-02T12:25:19Z</time>
      </trkpt>
      <trkpt lat="44.8487" lon="-0.5589">
        <ele>-42.7</ele>
        <time>2018-04-02T12:25:28Z</time>
      </trkpt>
      <trkpt lat="44.84863" lon="-0.55897">
        <ele>-44.5</ele>
        <time>2018-04-02T12:25:36Z</time>
      </trkpt>
      <trkpt lat="44.84855" lon="-0.55898">
        <ele>-48.8</ele>
        <time>2018-04-02T12:25:45Z</time>
      </trkpt>
      <trkpt lat="44.84846" lon="-0.55898">
        <ele>-53.6</ele>
        <time>2018-04-02T12:25:54Z</time>
      </trkpt>
      <trkpt lat="44.84842" lon="-0.55908">
        <ele>-52.1</ele>
        <time>2018-04-02T12:26:11Z</time>
      </trkpt>
      <trkpt lat="44.84846" lon="-0.5592">
        <ele>-58.2</ele>
        <time>2018-04-02T12:26:22Z</time>
      </trkpt>
      <trkpt lat="44.84851" lon="-0.5593">
        <ele>-59.5</ele>
        <time>2018-04-02T12:26:31Z</time>
      </trkpt>
      <trkpt lat="44.84857" lon="-0.55939">
        <ele>-60.1</ele>
        <time>2018-04-02T12:26:40Z</time>
      </trkpt>
      <trkpt lat="44.84864" lon="-0.55945">
        <ele>-57.3</ele>
        <time>2018-04-02T12:26:46Z</time>
      </trkpt>
      <trkpt lat="44.84871" lon="-0.5595">
        <ele>-52.8</ele>
        <time>2018-04-02T12:26:51Z</time>
      </trkpt>
      <trkpt lat="44.84875" lon="-0.55957">
        <ele>-51</ele>
        <time>2018-04-02T12:26:56Z</time>
      </trkpt>
      <trkpt lat="44.84882" lon="-0.55964">
        <ele>-47.9</ele>
        <time>2018-04-02T12:27:01Z</time>
      </trkpt>
      <trkpt lat="44.84888" lon="-0.55973">
        <ele>-46.6</ele>
        <time>2018-04-02T12:27:08Z</time>
      </trkpt>
      <trkpt lat="44.84891" lon="-0.55984">
        <ele>-45.1</ele>
        <time>2018-04-02T12:27:16Z</time>
      </trkpt>
      <trkpt lat="44.84896" lon="-0.55994">
        <ele>-45.4</ele>
        <time>2018-04-02T12:27:24Z</time>
      </trkpt>
      <trkpt lat="44.84904" lon="-0.56">
        <ele>-47</ele>
        <time>2018-04-02T12:28:13Z</time>
      </trkpt>
      <trkpt lat="44.84908" lon="-0.5601">
        <ele>-49.7</ele>
        <time>2018-04-02T12:28:22Z</time>
      </trkpt>
      <trkpt lat="44.84913" lon="-0.5602">
        <ele>-50.6</ele>
        <time>2018-04-02T12:28:29Z</time>
      </trkpt>
      <trkpt lat="44.84919" lon="-0.56028">
        <ele>-51.6</ele>
        <time>2018-04-02T12:28:37Z</time>
      </trkpt>
      <trkpt lat="44.84925" lon="-0.56037">
        <ele>-51.4</ele>
        <time>2018-04-02T12:28:44Z</time>
      </trkpt>
      <trkpt lat="44.84931" lon="-0.56046">
        <ele>-49.9</ele>
        <time>2018-04-02T12:28:52Z</time>
      </trkpt>
      <trkpt lat="44.84937" lon="-0.56054">
        <ele>-48.7</ele>
        <time>2018-04-02T12:29:01Z</time>
      </trkpt>
      <trkpt lat="44.84942" lon="-0.56064">
        <ele>-48.3</ele>
        <time>2018-04-02T12:29:10Z</time>
      </trkpt>
      <trkpt lat="44.84947" lon="-0.56073">
        <ele>-49.6</ele>
        <time>2018-04-02T12:29:19Z</time>
      </trkpt>
      <trkpt lat="44.84952" lon="-0.56082">
        <ele>-49</ele>
        <time>2018-04-02T12:29:25Z</time>
      </trkpt>
      <trkpt lat="44.84959" lon="-0.56087">
        <ele>-48</ele>
        <time>2018-04-02T12:29:31Z</time>
      </trkpt>
      <trkpt lat="44.84964" lon="-0.56098">
        <ele>-47.3</ele>
        <time>2018-04-02T12:29:39Z</time>
      </trkpt>
      <trkpt lat="44.8497" lon="-0.56106">
        <ele>-46</ele>
        <time>2018-04-02T12:29:47Z</time>
      </trkpt>
      <trkpt lat="44.84977" lon="-0.56112">
        <ele>-40.9</ele>
        <time>2018-04-02T12:30:02Z</time>
      </trkpt>
      <trkpt lat="44.84984" lon="-0.56119">
        <ele>-46.6</ele>
        <time>2018-04-02T12:30:11Z</time>
      </trkpt>
      <trkpt lat="44.84989" lon="-0.56129">
        <ele>-49.9</ele>
        <time>2018-04-02T12:30:20Z</time>
      </trkpt>
      <trkpt lat="44.84994" lon="-0.56138">
        <ele>-49.3</ele>
        <time>2018-04-02T12:30:28Z</time>
      </trkpt>
      <trkpt lat="44.84999" lon="-0.56147">
        <ele>-46.9</ele>
        <time>2018-04-02T12:30:36Z</time>
      </trkpt>
      <trkpt lat="44.85005" lon="-0.56155">
        <ele>-46.1</ele>
        <time>2018-04-02T12:30:44Z</time>
      </trkpt>
      <trkpt lat="44.85011" lon="-0.56163">
        <ele>-48.1</ele>
        <time>2018-04-02T12:30:52Z</time>
      </trkpt>
      <trkpt lat="44.85016" lon="-0.56172">
        <ele>-49.5</ele>
        <time>2018-04-02T12:30:58Z</time>
      </trkpt>
      <trkpt lat="44.8502" lon="-0.56181">
        <ele>-49.4</ele>
        <time>2018-04-02T12:31:04Z</time>
      </trkpt>
      <trkpt lat="44.85026" lon="-0.5619">
        <ele>-48.7</ele>
        <time>2018-04-02T12:31:10Z</time>
      </trkpt>
      <trkpt lat="44.85034" lon="-0.5619">
        <ele>-51.2</ele>
        <time>2018-04-02T12:31:17Z</time>
      </trkpt>
      <trkpt lat="44.85041" lon="-0.56185">
        <ele>-55.1</ele>
        <time>2018-04-02T12:31:25Z</time>
      </trkpt>
      <trkpt lat="44.85048" lon="-0.56179">
        <ele>-55.7</ele>
        <time>2018-04-02T12:31:32Z</time>
      </trkpt>
      <trkpt lat="44.85054" lon="-0.56169">
        <ele>-56</ele>
        <time>2018-04-02T12:31:39Z</time>
      </trkpt>
      <trkpt lat="44.8506" lon="-0.56162">
        <ele>-55.8</ele>
        <time>2018-04-02T12:31:46Z</time>
      </trkpt>
      <trkpt lat="44.85066" lon="-0.56154">
        <ele>-57.3</ele>
        <time>2018-04-02T12:31:53Z</time>
      </trkpt>
      <trkpt lat="44.85072" lon="-0.56145">
        <ele>-58.4</ele>
        <time>2018-04-02T12:32:00Z</time>
      </trkpt>
      <trkpt lat="44.85078" lon="-0.56136">
        <ele>-59.4</ele>
        <time>2018-04-02T12:32:07Z</time>
      </trkpt>
      <trkpt lat="44.85084" lon="-0.56127">
        <ele>-59</ele>
        <time>2018-04-02T12:32:14Z</time>
      </trkpt>
      <trkpt lat="44.85089" lon="-0.56118">
        <ele>-57.9</ele>
        <time>2018-04-02T12:32:20Z</time>
      </trkpt>
      <trkpt lat="44.85096" lon="-0.5611">
        <ele>-57.7</ele>
        <time>2018-04-02T12:32:27Z</time>
      </trkpt>
      <trkpt lat="44.85103" lon="-0.56102">
        <ele>-56.9</ele>
        <time>2018-04-02T12:32:34Z</time>
      </trkpt>
      <trkpt lat="44.85107" lon="-0.56093">
        <ele>-56.5</ele>
        <time>2018-04-02T12:32:41Z</time>
      </trkpt>
      <trkpt lat="44.85113" lon="-0.56084">
        <ele>-57.5</ele>
        <time>2018-04-02T12:32:48Z</time>
      </trkpt>
      <trkpt lat="44.85119" lon="-0.56075">
        <ele>-56.7</ele>
        <time>2018-04-02T12:32:55Z</time>
      </trkpt>
      <trkpt lat="44.85125" lon="-0.56067">
        <ele>-55.3</ele>
        <time>2018-04-02T12:33:01Z</time>
      </trkpt>
      <trkpt lat="44.85131" lon="-0.5606">
        <ele>-55.4</ele>
        <time>2018-04-02T12:33:09Z</time>
      </trkpt>
      <trkpt lat="44.85136" lon="-0.5605">
        <ele>-57.3</ele>
        <time>2018-04-02T12:33:16Z</time>
      </trkpt>
      <trkpt lat="44.85142" lon="-0.56041">
        <ele>-58.2</ele>
        <time>2018-04-02T12:33:23Z</time>
      </trkpt>
      <trkpt lat="44.85148" lon="-0.56033">
        <ele>-58.5</ele>
        <time>2018-04-02T12:33:30Z</time>
      </trkpt>
      <trkpt lat="44.85153" lon="-0.56024">
        <ele>-55.3</ele>
        <time>2018-04-02T12:33:37Z</time>
      </trkpt>
      <trkpt lat="44.85159" lon="-0.56016">
        <ele>-52.4</ele>
        <time>2018-04-02T12:33:44Z</time>
      </trkpt>
      <trkpt lat="44.85166" lon="-0.56009">
        <ele>-51.2</ele>
        <time>2018-04-02T12:33:51Z</time>
      </trkpt>
      <trkpt lat="44.85172" lon="-0.56001">
        <ele>-52.3</ele>
        <time>2018-04-02T12:33:58Z</time>
      </trkpt>
      <trkpt lat="44.85177" lon="-0.5599">
        <ele>-54.7</ele>
        <time>2018-04-02T12:34:05Z</time>
      </trkpt>
      <trkpt lat="44.85183" lon="-0.55982">
        <ele>-54.6</ele>
        <time>2018-04-02T12:34:12Z</time>
      </trkpt>
      <trkpt lat="44.85187" lon="-0.5597">
        <ele>-53.9</ele>
        <time>2018-04-02T12:34:19Z</time>
      </trkpt>
      <trkpt lat="44.85192" lon="-0.55961">
        <ele>-53.6</ele>
        <time>2018-04-02T12:34:26Z</time>
      </trkpt>
      <trkpt lat="44.85198" lon="-0.55953">
        <ele>-53.3</ele>
        <time>2018-04-02T12:34:33Z</time>
      </trkpt>
      <trkpt lat="44.85203" lon="-0.55944">
        <ele>-53</ele>
        <time>2018-04-02T12:34:40Z</time>
      </trkpt>
      <trkpt lat="44.85207" lon="-0.55935">
        <ele>-56</ele>
        <time>2018-04-02T12:34:46Z</time>
      </trkpt>
      <trkpt lat="44.8521" lon="-0.55923">
        <ele>-51.8</ele>
        <time>2018-04-02T12:34:53Z</time>
      </trkpt>
      <trkpt lat="44.85213" lon="-0.55914">
        <ele>-50.1</ele>
        <time>2018-04-02T12:35:00Z</time>
      </trkpt>
      <trkpt lat="44.85219" lon="-0.55903">
        <ele>-49.1</ele>
        <time>2018-04-02T12:35:07Z</time>
      </trkpt>
      <trkpt lat="44.85223" lon="-0.55893">
        <ele>-52.7</ele>
        <time>2018-04-02T12:35:15Z</time>
      </trkpt>
      <trkpt lat="44.85227" lon="-0.55882">
        <ele>-56.1</ele>
        <time>2018-04-02T12:35:23Z</time>
      </trkpt>
      <trkpt lat="44.85234" lon="-0.55874">
        <ele>-55.6</ele>
        <time>2018-04-02T12:35:29Z</time>
      </trkpt>
      <trkpt lat="44.85239" lon="-0.55865">
        <ele>-55.9</ele>
        <time>2018-04-02T12:35:35Z</time>
      </trkpt>
      <trkpt lat="44.85245" lon="-0.55856">
        <ele>-56</ele>
        <time>2018-04-02T12:35:43Z</time>
      </trkpt>
      <trkpt lat="44.85251" lon="-0.55847">
        <ele>-56.6</ele>
        <time>2018-04-02T12:35:51Z</time>
      </trkpt>
      <trkpt lat="44.85256" lon="-0.55839">
        <ele>-55.5</ele>
        <time>2018-04-02T12:35:59Z</time>
      </trkpt>
      <trkpt lat="44.85263" lon="-0.55831">
        <ele>-52.9</ele>
        <time>2018-04-02T12:36:05Z</time>
      </trkpt>
      <trkpt lat="44.85266" lon="-0.5582">
        <ele>-53.7</ele>
        <time>2018-04-02T12:36:13Z</time>
      </trkpt>
      <trkpt lat="44.85269" lon="-0.5581">
        <ele>-53.4</ele>
        <time>2018-04-02T12:36:19Z</time>
      </trkpt>
      <trkpt lat="44.85274" lon="-0.558">
        <ele>-51.6</ele>
        <time>2018-04-02T12:36:26Z</time>
      </trkpt>
      <trkpt lat="44.8528" lon="-0.55791">
        <ele>-50.5</ele>
        <time>2018-04-02T12:36:33Z</time>
      </trkpt>
      <trkpt lat="44.85286" lon="-0.55783">
        <ele>-49.4</ele>
        <time>2018-04-02T12:36:40Z</time>
      </trkpt>
      <trkpt lat="44.85291" lon="-0.55774">
        <ele>-51.2</ele>
        <time>2018-04-02T12:36:47Z</time>
      </trkpt>
      <trkpt lat="44.85296" lon="-0.55764">
        <ele>-51</ele>
        <time>2018-04-02T12:36:53Z</time>
      </trkpt>
      <trkpt lat="44.85299" lon="-0.55753">
        <ele>-51</ele>
        <time>2018-04-02T12:37:00Z</time>
      </trkpt>
      <trkpt lat="44.85303" lon="-0.55744">
        <ele>-54.5</ele>
        <time>2018-04-02T12:37:06Z</time>
      </trkpt>
      <trkpt lat="44.85305" lon="-0.55732">
        <ele>-58.3</ele>
        <time>2018-04-02T12:37:13Z</time>
      </trkpt>
      <trkpt lat="44.85306" lon="-0.55721">
        <ele>-61</ele>
        <time>2018-04-02T12:37:20Z</time>
      </trkpt>
      <trkpt lat="44.85311" lon="-0.55712">
        <ele>-60.7</ele>
        <time>2018-04-02T12:37:27Z</time>
      </trkpt>
      <trkpt lat="44.85313" lon="-0.557">
        <ele>-59.9</ele>
        <time>2018-04-02T12:37:34Z</time>
      </trkpt>
      <trkpt lat="44.85309" lon="-0.55689">
        <ele>-66.8</ele>
        <time>2018-04-02T12:37:40Z</time>
      </trkpt>
      <trkpt lat="44.85312" lon="-0.55677">
        <ele>-68.9</ele>
        <time>2018-04-02T12:37:47Z</time>
      </trkpt>
      <trkpt lat="44.85319" lon="-0.5567">
        <ele>-70.8</ele>
        <time>2018-04-02T12:37:53Z</time>
      </trkpt>
      <trkpt lat="44.85326" lon="-0.55662">
        <ele>-71</ele>
        <time>2018-04-02T12:38:00Z</time>
      </trkpt>
      <trkpt lat="44.85332" lon="-0.55654">
        <ele>-70.4</ele>
        <time>2018-04-02T12:38:06Z</time>
      </trkpt>
      <trkpt lat="44.85338" lon="-0.55644">
        <ele>-70.5</ele>
        <time>2018-04-02T12:38:13Z</time>
      </trkpt>
      <trkpt lat="44.85342" lon="-0.55636">
        <ele>-69</ele>
        <time>2018-04-02T12:38:18Z</time>
      </trkpt>
      <trkpt lat="44.85347" lon="-0.55626">
        <ele>-69</ele>
        <time>2018-04-02T12:38:24Z</time>
      </trkpt>
      <trkpt lat="44.85353" lon="-0.55618">
        <ele>-67.9</ele>
        <time>2018-04-02T12:38:31Z</time>
      </trkpt>
      <trkpt lat="44.85359" lon="-0.5561">
        <ele>-65.2</ele>
        <time>2018-04-02T12:38:36Z</time>
      </trkpt>
      <trkpt lat="44.85365" lon="-0.55602">
        <ele>-61.2</ele>
        <time>2018-04-02T12:38:43Z</time>
      </trkpt>
      <trkpt lat="44.85373" lon="-0.55596">
        <ele>-57.1</ele>
        <time>2018-04-02T12:38:49Z</time>
      </trkpt>
      <trkpt lat="44.85379" lon="-0.55589">
        <ele>-53.5</ele>
        <time>2018-04-02T12:38:54Z</time>
      </trkpt>
      <trkpt lat="44.85383" lon="-0.55579">
        <ele>-50.8</ele>
        <time>2018-04-02T12:39:01Z</time>
      </trkpt>
      <trkpt lat="44.85386" lon="-0.55569">
        <ele>-49.5</ele>
        <time>2018-04-02T12:39:08Z</time>
      </trkpt>
      <trkpt lat="44.85391" lon="-0.55559">
        <ele>-47.9</ele>
        <time>2018-04-02T12:39:13Z</time>
      </trkpt>
      <trkpt lat="44.85395" lon="-0.55548">
        <ele>-47.5</ele>
        <time>2018-04-02T12:39:20Z</time>
      </trkpt>
      <trkpt lat="44.85398" lon="-0.55538">
        <ele>-47.9</ele>
        <time>2018-04-02T12:39:26Z</time>
      </trkpt>
      <trkpt lat="44.85402" lon="-0.55527">
        <ele>-48.4</ele>
        <time>2018-04-02T12:39:34Z</time>
      </trkpt>
      <trkpt lat="44.85403" lon="-0.55516">
        <ele>-45.9</ele>
        <time>2018-04-02T12:39:42Z</time>
      </trkpt>
      <trkpt lat="44.85407" lon="-0.55506">
        <ele>-46.8</ele>
        <time>2018-04-02T12:39:49Z</time>
      </trkpt>
      <trkpt lat="44.85414" lon="-0.55499">
        <ele>-46.7</ele>
        <time>2018-04-02T12:39:54Z</time>
      </trkpt>
      <trkpt lat="44.8542" lon="-0.55491">
        <ele>-46</ele>
        <time>2018-04-02T12:39:59Z</time>
      </trkpt>
      <trkpt lat="44.85426" lon="-0.55482">
        <ele>-44.7</ele>
        <time>2018-04-02T12:40:04Z</time>
      </trkpt>
      <trkpt lat="44.85432" lon="-0.55474">
        <ele>-41.7</ele>
        <time>2018-04-02T12:40:10Z</time>
      </trkpt>
      <trkpt lat="44.85434" lon="-0.55463">
        <ele>-41.3</ele>
        <time>2018-04-02T12:40:17Z</time>
      </trkpt>
      <trkpt lat="44.85439" lon="-0.55452">
        <ele>-42.3</ele>
        <time>2018-04-02T12:40:23Z</time>
      </trkpt>
      <trkpt lat="44.85443" lon="-0.55443">
        <ele>-41.9</ele>
        <time>2018-04-02T12:40:29Z</time>
      </trkpt>
      <trkpt lat="44.85448" lon="-0.55433">
        <ele>-41.9</ele>
        <time>2018-04-02T12:40:36Z</time>
      </trkpt>
      <trkpt lat="44.85452" lon="-0.55424">
        <ele>-42.1</ele>
        <time>2018-04-02T12:40:42Z</time>
      </trkpt>
      <trkpt lat="44.85458" lon="-0.55416">
        <ele>-39.5</ele>
        <time>2018-04-02T12:40:48Z</time>
      </trkpt>
      <trkpt lat="44.85462" lon="-0.55406">
        <ele>-38.6</ele>
        <time>2018-04-02T12:40:54Z</time>
      </trkpt>
      <trkpt lat="44.85469" lon="-0.554">
        <ele>-43.1</ele>
        <time>2018-04-02T12:41:02Z</time>
      </trkpt>
      <trkpt lat="44.85473" lon="-0.55389">
        <ele>-42.9</ele>
        <time>2018-04-02T12:41:09Z</time>
      </trkpt>
      <trkpt lat="44.85476" lon="-0.55378">
        <ele>-45</ele>
        <time>2018-04-02T12:41:15Z</time>
      </trkpt>
      <trkpt lat="44.85479" lon="-0.55367">
        <ele>-44.2</ele>
        <time>2018-04-02T12:41:20Z</time>
      </trkpt>
      <trkpt lat="44.85483" lon="-0.55355">
        <ele>-45.8</ele>
        <time>2018-04-02T12:41:26Z</time>
      </trkpt>
      <trkpt lat="44.85484" lon="-0.55343">
        <ele>-48.1</ele>
        <time>2018-04-02T12:41:34Z</time>
      </trkpt>
      <trkpt lat="44.85483" lon="-0.55332">
        <ele>-51.8</ele>
        <time>2018-04-02T12:41:41Z</time>
      </trkpt>
      <trkpt lat="44.85486" lon="-0.55321">
        <ele>-35.7</ele>
        <time>2018-04-02T12:41:51Z</time>
      </trkpt>
      <trkpt lat="44.8549" lon="-0.55311">
        <ele>-35.5</ele>
        <time>2018-04-02T12:41:57Z</time>
      </trkpt>
      <trkpt lat="44.85492" lon="-0.553">
        <ele>-37.3</ele>
        <time>2018-04-02T12:42:03Z</time>
      </trkpt>
      <trkpt lat="44.85496" lon="-0.5529">
        <ele>-43.1</ele>
        <time>2018-04-02T12:42:10Z</time>
      </trkpt>
      <trkpt lat="44.85501" lon="-0.5528">
        <ele>-60.8</ele>
        <time>2018-04-02T12:42:24Z</time>
      </trkpt>
      <trkpt lat="44.85507" lon="-0.55274">
        <ele>-64.9</ele>
        <time>2018-04-02T12:42:30Z</time>
      </trkpt>
      <trkpt lat="44.85509" lon="-0.55263">
        <ele>-66.3</ele>
        <time>2018-04-02T12:42:35Z</time>
      </trkpt>
      <trkpt lat="44.85514" lon="-0.55256">
        <ele>-67.1</ele>
        <time>2018-04-02T12:42:39Z</time>
      </trkpt>
      <trkpt lat="44.85517" lon="-0.55246">
        <ele>-62.1</ele>
        <time>2018-04-02T12:42:45Z</time>
      </trkpt>
      <trkpt lat="44.85522" lon="-0.55236">
        <ele>-59.7</ele>
        <time>2018-04-02T12:42:51Z</time>
      </trkpt>
      <trkpt lat="44.85526" lon="-0.55226">
        <ele>-58.5</ele>
        <time>2018-04-02T12:42:57Z</time>
      </trkpt>
      <trkpt lat="44.85531" lon="-0.55216">
        <ele>-53.9</ele>
        <time>2018-04-02T12:43:03Z</time>
      </trkpt>
      <trkpt lat="44.85533" lon="-0.55205">
        <ele>-53.7</ele>
        <time>2018-04-02T12:43:11Z</time>
      </trkpt>
      <trkpt lat="44.85535" lon="-0.55193">
        <ele>-55.9</ele>
        <time>2018-04-02T12:43:18Z</time>
      </trkpt>
      <trkpt lat="44.85541" lon="-0.55186">
        <ele>-58.7</ele>
        <time>2018-04-02T12:43:25Z</time>
      </trkpt>
      <trkpt lat="44.85545" lon="-0.55175">
        <ele>-58.6</ele>
        <time>2018-04-02T12:43:31Z</time>
      </trkpt>
      <trkpt lat="44.85549" lon="-0.55165">
        <ele>-57.3</ele>
        <time>2018-04-02T12:43:37Z</time>
      </trkpt>
      <trkpt lat="44.85554" lon="-0.55156">
        <ele>-55.7</ele>
        <time>2018-04-02T12:43:44Z</time>
      </trkpt>
      <trkpt lat="44.85559" lon="-0.55147">
        <ele>-54.7</ele>
        <time>2018-04-02T12:43:50Z</time>
      </trkpt>
      <trkpt lat="44.85562" lon="-0.55135">
        <ele>-56.2</ele>
        <time>2018-04-02T12:43:57Z</time>
      </trkpt>
      <trkpt lat="44.85565" lon="-0.55125">
        <ele>-58.2</ele>
        <time>2018-04-02T12:44:06Z</time>
      </trkpt>
      <trkpt lat="44.85568" lon="-0.55115">
        <ele>-61.8</ele>
        <time>2018-04-02T12:44:14Z</time>
      </trkpt>
      <trkpt lat="44.85574" lon="-0.55108">
        <ele>-65.6</ele>
        <time>2018-04-02T12:44:22Z</time>
      </trkpt>
      <trkpt lat="44.85578" lon="-0.55097">
        <ele>-68.4</ele>
        <time>2018-04-02T12:44:29Z</time>
      </trkpt>
      <trkpt lat="44.8558" lon="-0.55085">
        <ele>-67.9</ele>
        <time>2018-04-02T12:44:35Z</time>
      </trkpt>
      <trkpt lat="44.85585" lon="-0.55074">
        <ele>-65.7</ele>
        <time>2018-04-02T12:44:41Z</time>
      </trkpt>
      <trkpt lat="44.85591" lon="-0.55066">
        <ele>-62.6</ele>
        <time>2018-04-02T12:44:46Z</time>
      </trkpt>
      <trkpt lat="44.85596" lon="-0.55057">
        <ele>-59.4</ele>
        <time>2018-04-02T12:44:51Z</time>
      </trkpt>
      <trkpt lat="44.85601" lon="-0.55049">
        <ele>-57</ele>
        <time>2018-04-02T12:44:56Z</time>
      </trkpt>
      <trkpt lat="44.85605" lon="-0.55038">
        <ele>-52.5</ele>
        <time>2018-04-02T12:45:03Z</time>
      </trkpt>
      <trkpt lat="44.8561" lon="-0.55028">
        <ele>-51.3</ele>
        <time>2018-04-02T12:45:09Z</time>
      </trkpt>
      <trkpt lat="44.85615" lon="-0.55019">
        <ele>-49.4</ele>
        <time>2018-04-02T12:45:16Z</time>
      </trkpt>
      <trkpt lat="44.85621" lon="-0.5501">
        <ele>-49.9</ele>
        <time>2018-04-02T12:45:24Z</time>
      </trkpt>
      <trkpt lat="44.85622" lon="-0.54999">
        <ele>-49.6</ele>
        <time>2018-04-02T12:45:38Z</time>
      </trkpt>
      <trkpt lat="44.85629" lon="-0.54993">
        <ele>-47.9</ele>
        <time>2018-04-02T12:45:48Z</time>
      </trkpt>
      <trkpt lat="44.85637" lon="-0.54998">
        <ele>-46.5</ele>
        <time>2018-04-02T12:45:57Z</time>
      </trkpt>
      <trkpt lat="44.85642" lon="-0.55006">
        <ele>-43.5</ele>
        <time>2018-04-02T12:46:03Z</time>
      </trkpt>
      <trkpt lat="44.85649" lon="-0.55012">
        <ele>-42.1</ele>
        <time>2018-04-02T12:46:10Z</time>
      </trkpt>
      <trkpt lat="44.85657" lon="-0.55018">
        <ele>-48.5</ele>
        <time>2018-04-02T12:46:20Z</time>
      </trkpt>
      <trkpt lat="44.85665" lon="-0.55023">
        <ele>-47.3</ele>
        <time>2018-04-02T12:46:27Z</time>
      </trkpt>
      <trkpt lat="44.85672" lon="-0.5503">
        <ele>-48.9</ele>
        <time>2018-04-02T12:46:35Z</time>
      </trkpt>
      <trkpt lat="44.85679" lon="-0.55036">
        <ele>-50.3</ele>
        <time>2018-04-02T12:46:42Z</time>
      </trkpt>
      <trkpt lat="44.85685" lon="-0.55042">
        <ele>-49.1</ele>
        <time>2018-04-02T12:46:47Z</time>
      </trkpt>
      <trkpt lat="44.85692" lon="-0.55049">
        <ele>-47.9</ele>
        <time>2018-04-02T12:46:54Z</time>
      </trkpt>
      <trkpt lat="44.85699" lon="-0.55055">
        <ele>-48</ele>
        <time>2018-04-02T12:47:01Z</time>
      </trkpt>
      <trkpt lat="44.85706" lon="-0.55063">
        <ele>-48.8</ele>
        <time>2018-04-02T12:47:08Z</time>
      </trkpt>
      <trkpt lat="44.85712" lon="-0.55071">
        <ele>-50</ele>
        <time>2018-04-02T12:47:16Z</time>
      </trkpt>
      <trkpt lat="44.85719" lon="-0.55079">
        <ele>-51.8</ele>
        <time>2018-04-02T12:47:24Z</time>
      </trkpt>
      <trkpt lat="44.85725" lon="-0.55087">
        <ele>-53.2</ele>
        <time>2018-04-02T12:47:31Z</time>
      </trkpt>
      <trkpt lat="44.85732" lon="-0.55095">
        <ele>-51.8</ele>
        <time>2018-04-02T12:47:38Z</time>
      </trkpt>
      <trkpt lat="44.8574" lon="-0.55101">
        <ele>-52.2</ele>
        <time>2018-04-02T12:47:46Z</time>
      </trkpt>
      <trkpt lat="44.85746" lon="-0.55107">
        <ele>-52.5</ele>
        <time>2018-04-02T12:47:54Z</time>
      </trkpt>
      <trkpt lat="44.85753" lon="-0.55113">
        <ele>-51</ele>
        <time>2018-04-02T12:48:00Z</time>
      </trkpt>
      <trkpt lat="44.85759" lon="-0.55122">
        <ele>-51.5</ele>
        <time>2018-04-02T12:48:08Z</time>
      </trkpt>
      <trkpt lat="44.85767" lon="-0.55128">
        <ele>-52.5</ele>
        <time>2018-04-02T12:48:16Z</time>
      </trkpt>
      <trkpt lat="44.85774" lon="-0.55133">
        <ele>-52.2</ele>
        <time>2018-04-02T12:48:23Z</time>
      </trkpt>
      <trkpt lat="44.85781" lon="-0.5514">
        <ele>-50.2</ele>
        <time>2018-04-02T12:48:29Z</time>
      </trkpt>
      <trkpt lat="44.85786" lon="-0.55148">
        <ele>-49.8</ele>
        <time>2018-04-02T12:48:35Z</time>
      </trkpt>
      <trkpt lat="44.85793" lon="-0.55156">
        <ele>-50.9</ele>
        <time>2018-04-02T12:48:43Z</time>
      </trkpt>
      <trkpt lat="44.85799" lon="-0.55164">
        <ele>-49.6</ele>
        <time>2018-04-02T12:48:50Z</time>
      </trkpt>
      <trkpt lat="44.85806" lon="-0.5517">
        <ele>-50.1</ele>
        <time>2018-04-02T12:48:57Z</time>
      </trkpt>
      <trkpt lat="44.85811" lon="-0.55178">
        <ele>-49.3</ele>
        <time>2018-04-02T12:49:04Z</time>
      </trkpt>
      <trkpt lat="44.85818" lon="-0.55185">
        <ele>-48.3</ele>
        <time>2018-04-02T12:49:12Z</time>
      </trkpt>
      <trkpt lat="44.85825" lon="-0.55191">
        <ele>-51.2</ele>
        <time>2018-04-02T12:49:20Z</time>
      </trkpt>
      <trkpt lat="44.85832" lon="-0.55199">
        <ele>-51</ele>
        <time>2018-04-02T12:49:27Z</time>
      </trkpt>
      <trkpt lat="44.85838" lon="-0.55207">
        <ele>-51.1</ele>
        <time>2018-04-02T12:49:34Z</time>
      </trkpt>
      <trkpt lat="44.85845" lon="-0.55214">
        <ele>-49.9</ele>
        <time>2018-04-02T12:49:41Z</time>
      </trkpt>
      <trkpt lat="44.85852" lon="-0.55222">
        <ele>-52.4</ele>
        <time>2018-04-02T12:49:49Z</time>
      </trkpt>
      <trkpt lat="44.8586" lon="-0.55226">
        <ele>-56</ele>
        <time>2018-04-02T12:49:58Z</time>
      </trkpt>
      <trkpt lat="44.85867" lon="-0.55231">
        <ele>-59.6</ele>
        <time>2018-04-02T12:50:07Z</time>
      </trkpt>
      <trkpt lat="44.85874" lon="-0.55239">
        <ele>-58.8</ele>
        <time>2018-04-02T12:50:15Z</time>
      </trkpt>
      <trkpt lat="44.8588" lon="-0.55248">
        <ele>-57.5</ele>
        <time>2018-04-02T12:50:21Z</time>
      </trkpt>
      <trkpt lat="44.85886" lon="-0.55256">
        <ele>-55.3</ele>
        <time>2018-04-02T12:50:27Z</time>
      </trkpt>
      <trkpt lat="44.85893" lon="-0.55262">
        <ele>-54.8</ele>
        <time>2018-04-02T12:50:33Z</time>
      </trkpt>
      <trkpt lat="44.85901" lon="-0.55268">
        <ele>-56.5</ele>
        <time>2018-04-02T12:50:40Z</time>
      </trkpt>
      <trkpt lat="44.85908" lon="-0.55274">
        <ele>-57.4</ele>
        <time>2018-04-02T12:50:47Z</time>
      </trkpt>
      <trkpt lat="44.85915" lon="-0.5528">
        <ele>-59.2</ele>
        <time>2018-04-02T12:50:54Z</time>
      </trkpt>
      <trkpt lat="44.85921" lon="-0.55286">
        <ele>-59.8</ele>
        <time>2018-04-02T12:51:02Z</time>
      </trkpt>
      <trkpt lat="44.85929" lon="-0.55291">
        <ele>-59.7</ele>
        <time>2018-04-02T12:51:09Z</time>
      </trkpt>
      <trkpt lat="44.85935" lon="-0.55297">
        <ele>-59.5</ele>
        <time>2018-04-02T12:51:16Z</time>
      </trkpt>
      <trkpt lat="44.85942" lon="-0.55304">
        <ele>-60.2</ele>
        <time>2018-04-02T12:51:23Z</time>
      </trkpt>
      <trkpt lat="44.8595" lon="-0.5531">
        <ele>-61.1</ele>
        <time>2018-04-02T12:51:30Z</time>
      </trkpt>
      <trkpt lat="44.85955" lon="-0.55318">
        <ele>-62.2</ele>
        <time>2018-04-02T12:51:37Z</time>
      </trkpt>
      <trkpt lat="44.85961" lon="-0.55327">
        <ele>-61.6</ele>
        <time>2018-04-02T12:51:44Z</time>
      </trkpt>
      <trkpt lat="44.85967" lon="-0.55336">
        <ele>-60.6</ele>
        <time>2018-04-02T12:51:50Z</time>
      </trkpt>
      <trkpt lat="44.85972" lon="-0.55344">
        <ele>-60.4</ele>
        <time>2018-04-02T12:51:57Z</time>
      </trkpt>
      <trkpt lat="44.85977" lon="-0.55352">
        <ele>-61.3</ele>
        <time>2018-04-02T12:52:04Z</time>
      </trkpt>
      <trkpt lat="44.85985" lon="-0.55357">
        <ele>-57.6</ele>
        <time>2018-04-02T12:52:10Z</time>
      </trkpt>
      <trkpt lat="44.8598" lon="-0.55365">
        <ele>-57.5</ele>
        <time>2018-04-02T12:52:21Z</time>
      </trkpt>
      <trkpt lat="44.85972" lon="-0.55371">
        <ele>-55.8</ele>
        <time>2018-04-02T12:52:26Z</time>
      </trkpt>
      <trkpt lat="44.85965" lon="-0.55376">
        <ele>-53.1</ele>
        <time>2018-04-02T12:52:32Z</time>
      </trkpt>
      <trkpt lat="44.8596" lon="-0.55386">
        <ele>-50.8</ele>
        <time>2018-04-02T12:52:41Z</time>
      </trkpt>
      <trkpt lat="44.85956" lon="-0.55396">
        <ele>-51.4</ele>
        <time>2018-04-02T12:52:50Z</time>
      </trkpt>
      <trkpt lat="44.85953" lon="-0.55406">
        <ele>-55</ele>
        <time>2018-04-02T12:52:56Z</time>
      </trkpt>
      <trkpt lat="44.85953" lon="-0.55417">
        <ele>-61</ele>
        <time>2018-04-02T12:53:04Z</time>
      </trkpt>
      <trkpt lat="44.85946" lon="-0.55426">
        <ele>-67.9</ele>
        <time>2018-04-02T12:53:13Z</time>
      </trkpt>
      <trkpt lat="44.8594" lon="-0.55432">
        <ele>-63.7</ele>
        <time>2018-04-02T12:53:17Z</time>
      </trkpt>
      <trkpt lat="44.85934" lon="-0.55439">
        <ele>-58.9</ele>
        <time>2018-04-02T12:53:22Z</time>
      </trkpt>
      <trkpt lat="44.85928" lon="-0.55449">
        <ele>-56.2</ele>
        <time>2018-04-02T12:53:27Z</time>
      </trkpt>
      <trkpt lat="44.85924" lon="-0.55458">
        <ele>-54.3</ele>
        <time>2018-04-02T12:53:34Z</time>
      </trkpt>
      <trkpt lat="44.85919" lon="-0.55467">
        <ele>-54</ele>
        <time>2018-04-02T12:53:41Z</time>
      </trkpt>
      <trkpt lat="44.85914" lon="-0.55478">
        <ele>-54.2</ele>
        <time>2018-04-02T12:53:48Z</time>
      </trkpt>
      <trkpt lat="44.85912" lon="-0.5549">
        <ele>-57.1</ele>
        <time>2018-04-02T12:53:57Z</time>
      </trkpt>
      <trkpt lat="44.85908" lon="-0.55501">
        <ele>-59.3</ele>
        <time>2018-04-02T12:54:05Z</time>
      </trkpt>
      <trkpt lat="44.85904" lon="-0.55511">
        <ele>-59.5</ele>
        <time>2018-04-02T12:54:11Z</time>
      </trkpt>
      <trkpt lat="44.85899" lon="-0.55522">
        <ele>-60.5</ele>
        <time>2018-04-02T12:54:18Z</time>
      </trkpt>
      <trkpt lat="44.85894" lon="-0.55532">
        <ele>-61.5</ele>
        <time>2018-04-02T12:54:26Z</time>
      </trkpt>
      <trkpt lat="44.85888" lon="-0.5554">
        <ele>-60.5</ele>
        <time>2018-04-02T12:54:33Z</time>
      </trkpt>
      <trkpt lat="44.85884" lon="-0.5555">
        <ele>-59.4</ele>
        <time>2018-04-02T12:54:39Z</time>
      </trkpt>
      <trkpt lat="44.85879" lon="-0.55559">
        <ele>-58.4</ele>
        <time>2018-04-02T12:54:45Z</time>
      </trkpt>
      <trkpt lat="44.85874" lon="-0.55568">
        <ele>-57.5</ele>
        <time>2018-04-02T12:54:52Z</time>
      </trkpt>
      <trkpt lat="44.8587" lon="-0.55578">
        <ele>-57.1</ele>
        <time>2018-04-02T12:55:00Z</time>
      </trkpt>
      <trkpt lat="44.85867" lon="-0.5559">
        <ele>-58.2</ele>
        <time>2018-04-02T12:55:07Z</time>
      </trkpt>
      <trkpt lat="44.85862" lon="-0.556">
        <ele>-60.7</ele>
        <time>2018-04-02T12:55:15Z</time>
      </trkpt>
      <trkpt lat="44.85856" lon="-0.55608">
        <ele>-58.7</ele>
        <time>2018-04-02T12:55:22Z</time>
      </trkpt>
      <trkpt lat="44.85852" lon="-0.55619">
        <ele>-58</ele>
        <time>2018-04-02T12:55:30Z</time>
      </trkpt>
      <trkpt lat="44.85849" lon="-0.5563">
        <ele>-56.9</ele>
        <time>2018-04-02T12:55:37Z</time>
      </trkpt>
      <trkpt lat="44.85846" lon="-0.55639">
        <ele>-57.1</ele>
        <time>2018-04-02T12:55:43Z</time>
      </trkpt>
      <trkpt lat="44.85842" lon="-0.5565">
        <ele>-57.6</ele>
        <time>2018-04-02T12:55:49Z</time>
      </trkpt>
      <trkpt lat="44.85838" lon="-0.5566">
        <ele>-59.5</ele>
        <time>2018-04-02T12:55:57Z</time>
      </trkpt>
      <trkpt lat="44.85834" lon="-0.5567">
        <ele>-61.7</ele>
        <time>2018-04-02T12:56:04Z</time>
      </trkpt>
      <trkpt lat="44.8583" lon="-0.5568">
        <ele>-61.9</ele>
        <time>2018-04-02T12:56:11Z</time>
      </trkpt>
      <trkpt lat="44.85826" lon="-0.55691">
        <ele>-64</ele>
        <time>2018-04-02T12:56:18Z</time>
      </trkpt>
      <trkpt lat="44.85823" lon="-0.55703">
        <ele>-67.3</ele>
        <time>2018-04-02T12:56:26Z</time>
      </trkpt>
      <trkpt lat="44.85821" lon="-0.55715">
        <ele>-70.6</ele>
        <time>2018-04-02T12:56:34Z</time>
      </trkpt>
      <trkpt lat="44.85816" lon="-0.55724">
        <ele>-71.2</ele>
        <time>2018-04-02T12:56:40Z</time>
      </trkpt>
      <trkpt lat="44.8581" lon="-0.55731">
        <ele>-68.8</ele>
        <time>2018-04-02T12:56:46Z</time>
      </trkpt>
      <trkpt lat="44.85804" lon="-0.55739">
        <ele>-66.2</ele>
        <time>2018-04-02T12:56:53Z</time>
      </trkpt>
      <trkpt lat="44.85798" lon="-0.55746">
        <ele>-63.2</ele>
        <time>2018-04-02T12:56:59Z</time>
      </trkpt>
      <trkpt lat="44.85793" lon="-0.55757">
        <ele>-59.2</ele>
        <time>2018-04-02T12:57:06Z</time>
      </trkpt>
      <trkpt lat="44.85787" lon="-0.55764">
        <ele>-57.7</ele>
        <time>2018-04-02T12:57:12Z</time>
      </trkpt>
      <trkpt lat="44.85783" lon="-0.55774">
        <ele>-58.9</ele>
        <time>2018-04-02T12:57:19Z</time>
      </trkpt>
      <trkpt lat="44.85779" lon="-0.55784">
        <ele>-58.9</ele>
        <time>2018-04-02T12:57:27Z</time>
      </trkpt>
      <trkpt lat="44.85774" lon="-0.55795">
        <ele>-59.1</ele>
        <time>2018-04-02T12:57:34Z</time>
      </trkpt>
      <trkpt lat="44.85769" lon="-0.55805">
        <ele>-57.1</ele>
        <time>2018-04-02T12:57:41Z</time>
      </trkpt>
      <trkpt lat="44.85765" lon="-0.55817">
        <ele>-55.2</ele>
        <time>2018-04-02T12:57:48Z</time>
      </trkpt>
      <trkpt lat="44.85763" lon="-0.55828">
        <ele>-55.3</ele>
        <time>2018-04-02T12:57:54Z</time>
      </trkpt>
      <trkpt lat="44.85759" lon="-0.55838">
        <ele>-55.9</ele>
        <time>2018-04-02T12:58:01Z</time>
      </trkpt>
      <trkpt lat="44.85755" lon="-0.55848">
        <ele>-56.4</ele>
        <time>2018-04-02T12:58:07Z</time>
      </trkpt>
      <trkpt lat="44.8575" lon="-0.55857">
        <ele>-57.2</ele>
        <time>2018-04-02T12:58:14Z</time>
      </trkpt>
      <trkpt lat="44.85746" lon="-0.55867">
        <ele>-57.7</ele>
        <time>2018-04-02T12:58:22Z</time>
      </trkpt>
      <trkpt lat="44.85741" lon="-0.55877">
        <ele>-57.8</ele>
        <time>2018-04-02T12:58:29Z</time>
      </trkpt>
      <trkpt lat="44.85736" lon="-0.55887">
        <ele>-57.5</ele>
        <time>2018-04-02T12:58:35Z</time>
      </trkpt>
      <trkpt lat="44.85731" lon="-0.55896">
        <ele>-59.1</ele>
        <time>2018-04-02T12:58:43Z</time>
      </trkpt>
      <trkpt lat="44.85727" lon="-0.55906">
        <ele>-59.9</ele>
        <time>2018-04-02T12:58:51Z</time>
      </trkpt>
      <trkpt lat="44.85722" lon="-0.55915">
        <ele>-60.3</ele>
        <time>2018-04-02T12:58:58Z</time>
      </trkpt>
      <trkpt lat="44.85718" lon="-0.55926">
        <ele>-61.4</ele>
        <time>2018-04-02T12:59:06Z</time>
      </trkpt>
      <trkpt lat="44.85713" lon="-0.55937">
        <ele>-61.8</ele>
        <time>2018-04-02T12:59:15Z</time>
      </trkpt>
      <trkpt lat="44.85708" lon="-0.55945">
        <ele>-61.5</ele>
        <time>2018-04-02T12:59:22Z</time>
      </trkpt>
      <trkpt lat="44.85702" lon="-0.55952">
        <ele>-60.2</ele>
        <time>2018-04-02T12:59:27Z</time>
      </trkpt>
      <trkpt lat="44.85699" lon="-0.55963">
        <ele>-61.5</ele>
        <time>2018-04-02T12:59:33Z</time>
      </trkpt>
      <trkpt lat="44.85695" lon="-0.55974">
        <ele>-59.9</ele>
        <time>2018-04-02T12:59:39Z</time>
      </trkpt>
      <trkpt lat="44.85691" lon="-0.55984">
        <ele>-58.8</ele>
        <time>2018-04-02T12:59:46Z</time>
      </trkpt>
      <trkpt lat="44.85688" lon="-0.55994">
        <ele>-58.9</ele>
        <time>2018-04-02T12:59:52Z</time>
      </trkpt>
      <trkpt lat="44.85683" lon="-0.56004">
        <ele>-59.3</ele>
        <time>2018-04-02T12:59:59Z</time>
      </trkpt>
      <trkpt lat="44.85679" lon="-0.56015">
        <ele>-60.2</ele>
        <time>2018-04-02T13:00:06Z</time>
      </trkpt>
      <trkpt lat="44.85675" lon="-0.56025">
        <ele>-60.2</ele>
        <time>2018-04-02T13:00:14Z</time>
      </trkpt>
      <trkpt lat="44.85671" lon="-0.56036">
        <ele>-59.7</ele>
        <time>2018-04-02T13:00:21Z</time>
      </trkpt>
      <trkpt lat="44.85668" lon="-0.56046">
        <ele>-62.9</ele>
        <time>2018-04-02T13:00:27Z</time>
      </trkpt>
      <trkpt lat="44.85663" lon="-0.56056">
        <ele>-62.7</ele>
        <time>2018-04-02T13:00:33Z</time>
      </trkpt>
      <trkpt lat="44.85657" lon="-0.56065">
        <ele>-62.8</ele>
        <time>2018-04-02T13:00:40Z</time>
      </trkpt>
      <trkpt lat="44.85654" lon="-0.56076">
        <ele>-63.7</ele>
        <time>2018-04-02T13:00:47Z</time>
      </trkpt>
      <trkpt lat="44.85649" lon="-0.56085">
        <ele>-62.7</ele>
        <time>2018-04-02T13:00:55Z</time>
      </trkpt>
      <trkpt lat="44.85645" lon="-0.56095">
        <ele>-62.5</ele>
        <time>2018-04-02T13:01:02Z</time>
      </trkpt>
      <trkpt lat="44.85639" lon="-0.56105">
        <ele>-60.3</ele>
        <time>2018-04-02T13:01:10Z</time>
      </trkpt>
      <trkpt lat="44.85635" lon="-0.56115">
        <ele>-59.4</ele>
        <time>2018-04-02T13:01:17Z</time>
      </trkpt>
      <trkpt lat="44.8563" lon="-0.56125">
        <ele>-60.5</ele>
        <time>2018-04-02T13:01:24Z</time>
      </trkpt>
      <trkpt lat="44.85625" lon="-0.56134">
        <ele>-60</ele>
        <time>2018-04-02T13:01:30Z</time>
      </trkpt>
      <trkpt lat="44.85624" lon="-0.56145">
        <ele>-59.3</ele>
        <time>2018-04-02T13:01:39Z</time>
      </trkpt>
      <trkpt lat="44.85618" lon="-0.56152">
        <ele>-59.4</ele>
        <time>2018-04-02T13:01:54Z</time>
      </trkpt>
      <trkpt lat="44.85612" lon="-0.56161">
        <ele>-58.6</ele>
        <time>2018-04-02T13:02:02Z</time>
      </trkpt>
      <trkpt lat="44.85607" lon="-0.56171">
        <ele>-60.6</ele>
        <time>2018-04-02T13:02:41Z</time>
      </trkpt>
      <trkpt lat="44.85606" lon="-0.56182">
        <ele>-67.4</ele>
        <time>2018-04-02T13:02:46Z</time>
      </trkpt>
      <trkpt lat="44.85602" lon="-0.56194">
        <ele>-68.1</ele>
        <time>2018-04-02T13:02:55Z</time>
      </trkpt>
      <trkpt lat="44.85597" lon="-0.562">
        <ele>-67.3</ele>
        <time>2018-04-02T13:03:08Z</time>
      </trkpt>
      <trkpt lat="44.85591" lon="-0.56208">
        <ele>-63.4</ele>
        <time>2018-04-02T13:03:15Z</time>
      </trkpt>
      <trkpt lat="44.85585" lon="-0.56217">
        <ele>-56.3</ele>
        <time>2018-04-02T13:03:23Z</time>
      </trkpt>
      <trkpt lat="44.85581" lon="-0.56227">
        <ele>-55.9</ele>
        <time>2018-04-02T13:03:32Z</time>
      </trkpt>
      <trkpt lat="44.85575" lon="-0.56236">
        <ele>-57</ele>
        <time>2018-04-02T13:03:40Z</time>
      </trkpt>
      <trkpt lat="44.85571" lon="-0.56245">
        <ele>-58</ele>
        <time>2018-04-02T13:03:48Z</time>
      </trkpt>
      <trkpt lat="44.85565" lon="-0.56254">
        <ele>-59.1</ele>
        <time>2018-04-02T13:03:55Z</time>
      </trkpt>
      <trkpt lat="44.8556" lon="-0.56263">
        <ele>-56.4</ele>
        <time>2018-04-02T13:04:07Z</time>
      </trkpt>
      <trkpt lat="44.85552" lon="-0.56268">
        <ele>-56</ele>
        <time>2018-04-02T13:04:15Z</time>
      </trkpt>
      <trkpt lat="44.85546" lon="-0.56275">
        <ele>-56.4</ele>
        <time>2018-04-02T13:04:23Z</time>
      </trkpt>
      <trkpt lat="44.85539" lon="-0.56282">
        <ele>-56</ele>
        <time>2018-04-02T13:04:31Z</time>
      </trkpt>
      <trkpt lat="44.85533" lon="-0.5629">
        <ele>-58.6</ele>
        <time>2018-04-02T13:04:40Z</time>
      </trkpt>
      <trkpt lat="44.85528" lon="-0.563">
        <ele>-59</ele>
        <time>2018-04-02T13:04:47Z</time>
      </trkpt>
      <trkpt lat="44.85522" lon="-0.56308">
        <ele>-59.2</ele>
        <time>2018-04-02T13:04:53Z</time>
      </trkpt>
      <trkpt lat="44.85517" lon="-0.56317">
        <ele>-59.6</ele>
        <time>2018-04-02T13:05:00Z</time>
      </trkpt>
      <trkpt lat="44.85512" lon="-0.56327">
        <ele>-59.9</ele>
        <time>2018-04-02T13:05:08Z</time>
      </trkpt>
      <trkpt lat="44.85508" lon="-0.56337">
        <ele>-57.7</ele>
        <time>2018-04-02T13:05:14Z</time>
      </trkpt>
      <trkpt lat="44.85503" lon="-0.56347">
        <ele>-57.5</ele>
        <time>2018-04-02T13:05:21Z</time>
      </trkpt>
      <trkpt lat="44.85496" lon="-0.56355">
        <ele>-56.4</ele>
        <time>2018-04-02T13:05:28Z</time>
      </trkpt>
      <trkpt lat="44.85491" lon="-0.56365">
        <ele>-56.5</ele>
        <time>2018-04-02T13:05:36Z</time>
      </trkpt>
      <trkpt lat="44.85486" lon="-0.56373">
        <ele>-56.9</ele>
        <time>2018-04-02T13:05:43Z</time>
      </trkpt>
      <trkpt lat="44.8548" lon="-0.56382">
        <ele>-56.8</ele>
        <time>2018-04-02T13:05:49Z</time>
      </trkpt>
      <trkpt lat="44.85474" lon="-0.56389">
        <ele>-54.8</ele>
        <time>2018-04-02T13:05:55Z</time>
      </trkpt>
      <trkpt lat="44.85467" lon="-0.56395">
        <ele>-52.9</ele>
        <time>2018-04-02T13:06:05Z</time>
      </trkpt>
      <trkpt lat="44.85461" lon="-0.56403">
        <ele>-49.4</ele>
        <time>2018-04-02T13:06:12Z</time>
      </trkpt>
      <trkpt lat="44.85455" lon="-0.56412">
        <ele>-44.9</ele>
        <time>2018-04-02T13:06:19Z</time>
      </trkpt>
      <trkpt lat="44.8545" lon="-0.5642">
        <ele>-42.9</ele>
        <time>2018-04-02T13:06:26Z</time>
      </trkpt>
      <trkpt lat="44.85444" lon="-0.56429">
        <ele>-40.4</ele>
        <time>2018-04-02T13:06:34Z</time>
      </trkpt>
      <trkpt lat="44.85442" lon="-0.5644">
        <ele>-39.6</ele>
        <time>2018-04-02T13:06:39Z</time>
      </trkpt>
      <trkpt lat="44.8544" lon="-0.56452">
        <ele>-40.7</ele>
        <time>2018-04-02T13:06:43Z</time>
      </trkpt>
      <trkpt lat="44.85438" lon="-0.56463">
        <ele>-40.8</ele>
        <time>2018-04-02T13:06:47Z</time>
      </trkpt>
      <trkpt lat="44.85434" lon="-0.56474">
        <ele>-40.5</ele>
        <time>2018-04-02T13:06:53Z</time>
      </trkpt>
      <trkpt lat="44.85432" lon="-0.56485">
        <ele>-40.2</ele>
        <time>2018-04-02T13:06:57Z</time>
      </trkpt>
      <trkpt lat="44.85433" lon="-0.56498">
        <ele>-36.8</ele>
        <time>2018-04-02T13:07:02Z</time>
      </trkpt>
      <trkpt lat="44.85429" lon="-0.56508">
        <ele>-38.4</ele>
        <time>2018-04-02T13:07:07Z</time>
      </trkpt>
      <trkpt lat="44.85427" lon="-0.56519">
        <ele>-33.1</ele>
        <time>2018-04-02T13:07:13Z</time>
      </trkpt>
      <trkpt lat="44.8542" lon="-0.56527">
        <ele>-29</ele>
        <time>2018-04-02T13:07:18Z</time>
      </trkpt>
      <trkpt lat="44.85412" lon="-0.56525">
        <ele>-29.5</ele>
        <time>2018-04-02T13:07:26Z</time>
      </trkpt>
      <trkpt lat="44.85404" lon="-0.56522">
        <ele>-39.3</ele>
        <time>2018-04-02T13:07:34Z</time>
      </trkpt>
      <trkpt lat="44.85395" lon="-0.56523">
        <ele>-47.5</ele>
        <time>2018-04-02T13:07:40Z</time>
      </trkpt>
      <trkpt lat="44.85387" lon="-0.56526">
        <ele>-53</ele>
        <time>2018-04-02T13:07:47Z</time>
      </trkpt>
      <trkpt lat="44.85379" lon="-0.56533">
        <ele>-55.7</ele>
        <time>2018-04-02T13:07:54Z</time>
      </trkpt>
      <trkpt lat="44.85373" lon="-0.56539">
        <ele>-58</ele>
        <time>2018-04-02T13:08:00Z</time>
      </trkpt>
      <trkpt lat="44.85367" lon="-0.56548">
        <ele>-50.5</ele>
        <time>2018-04-02T13:08:08Z</time>
      </trkpt>
      <trkpt lat="44.85364" lon="-0.56558">
        <ele>-44.9</ele>
        <time>2018-04-02T13:08:14Z</time>
      </trkpt>
      <trkpt lat="44.85356" lon="-0.56564">
        <ele>-42.4</ele>
        <time>2018-04-02T13:08:20Z</time>
      </trkpt>
      <trkpt lat="44.85349" lon="-0.5657">
        <ele>-37</ele>
        <time>2018-04-02T13:08:27Z</time>
      </trkpt>
      <trkpt lat="44.85344" lon="-0.5658">
        <ele>-27.8</ele>
        <time>2018-04-02T13:08:34Z</time>
      </trkpt>
      <trkpt lat="44.85339" lon="-0.56589">
        <ele>-24.9</ele>
        <time>2018-04-02T13:08:41Z</time>
      </trkpt>
      <trkpt lat="44.85333" lon="-0.56598">
        <ele>-25</ele>
        <time>2018-04-02T13:08:50Z</time>
      </trkpt>
      <trkpt lat="44.85325" lon="-0.56603">
        <ele>-24.6</ele>
        <time>2018-04-02T13:08:57Z</time>
      </trkpt>
      <trkpt lat="44.85322" lon="-0.56615">
        <ele>-30.1</ele>
        <time>2018-04-02T13:09:04Z</time>
      </trkpt>
      <trkpt lat="44.85319" lon="-0.56625">
        <ele>-34.8</ele>
        <time>2018-04-02T13:09:10Z</time>
      </trkpt>
      <trkpt lat="44.85316" lon="-0.56636">
        <ele>-37.2</ele>
        <time>2018-04-02T13:09:16Z</time>
      </trkpt>
      <trkpt lat="44.8531" lon="-0.56645">
        <ele>-42.9</ele>
        <time>2018-04-02T13:09:22Z</time>
      </trkpt>
      <trkpt lat="44.85306" lon="-0.56655">
        <ele>-48.2</ele>
        <time>2018-04-02T13:09:28Z</time>
      </trkpt>
      <trkpt lat="44.85299" lon="-0.5666">
        <ele>-54.5</ele>
        <time>2018-04-02T13:09:33Z</time>
      </trkpt>
      <trkpt lat="44.85289" lon="-0.56659">
        <ele>-61.2</ele>
        <time>2018-04-02T13:09:37Z</time>
      </trkpt>
      <trkpt lat="44.85282" lon="-0.56664">
        <ele>-61.4</ele>
        <time>2018-04-02T13:09:44Z</time>
      </trkpt>
      <trkpt lat="44.85273" lon="-0.56669">
        <ele>-59.1</ele>
        <time>2018-04-02T13:09:52Z</time>
      </trkpt>
      <trkpt lat="44.85266" lon="-0.56675">
        <ele>-54.6</ele>
        <time>2018-04-02T13:10:01Z</time>
      </trkpt>
      <trkpt lat="44.8526" lon="-0.56681">
        <ele>-54.9</ele>
        <time>2018-04-02T13:10:08Z</time>
      </trkpt>
      <trkpt lat="44.85253" lon="-0.56687">
        <ele>-54.2</ele>
        <time>2018-04-02T13:10:16Z</time>
      </trkpt>
      <trkpt lat="44.85245" lon="-0.56694">
        <ele>-50.8</ele>
        <time>2018-04-02T13:10:24Z</time>
      </trkpt>
      <trkpt lat="44.85239" lon="-0.567">
        <ele>-50.4</ele>
        <time>2018-04-02T13:10:31Z</time>
      </trkpt>
      <trkpt lat="44.85232" lon="-0.56706">
        <ele>-52.9</ele>
        <time>2018-04-02T13:10:38Z</time>
      </trkpt>
      <trkpt lat="44.85225" lon="-0.56714">
        <ele>-53.7</ele>
        <time>2018-04-02T13:10:45Z</time>
      </trkpt>
      <trkpt lat="44.85219" lon="-0.56721">
        <ele>-48.8</ele>
        <time>2018-04-02T13:10:52Z</time>
      </trkpt>
      <trkpt lat="44.85212" lon="-0.56729">
        <ele>-42.6</ele>
        <time>2018-04-02T13:11:00Z</time>
      </trkpt>
      <trkpt lat="44.85206" lon="-0.56736">
        <ele>-40.3</ele>
        <time>2018-04-02T13:11:06Z</time>
      </trkpt>
      <trkpt lat="44.85199" lon="-0.56743">
        <ele>-39</ele>
        <time>2018-04-02T13:11:13Z</time>
      </trkpt>
      <trkpt lat="44.85192" lon="-0.5675">
        <ele>-41.3</ele>
        <time>2018-04-02T13:11:20Z</time>
      </trkpt>
      <trkpt lat="44.85186" lon="-0.56757">
        <ele>-44.5</ele>
        <time>2018-04-02T13:11:27Z</time>
      </trkpt>
      <trkpt lat="44.85178" lon="-0.56762">
        <ele>-45.1</ele>
        <time>2018-04-02T13:11:35Z</time>
      </trkpt>
      <trkpt lat="44.85172" lon="-0.5677">
        <ele>-43.9</ele>
        <time>2018-04-02T13:11:41Z</time>
      </trkpt>
      <trkpt lat="44.85166" lon="-0.56778">
        <ele>-46.4</ele>
        <time>2018-04-02T13:11:48Z</time>
      </trkpt>
      <trkpt lat="44.85161" lon="-0.56787">
        <ele>-51.1</ele>
        <time>2018-04-02T13:11:56Z</time>
      </trkpt>
      <trkpt lat="44.85158" lon="-0.56798">
        <ele>-47.3</ele>
        <time>2018-04-02T13:12:03Z</time>
      </trkpt>
      <trkpt lat="44.85153" lon="-0.56809">
        <ele>-49.6</ele>
        <time>2018-04-02T13:12:08Z</time>
      </trkpt>
      <trkpt lat="44.85148" lon="-0.56819">
        <ele>-54.1</ele>
        <time>2018-04-02T13:12:14Z</time>
      </trkpt>
      <trkpt lat="44.85142" lon="-0.56825">
        <ele>-57.4</ele>
        <time>2018-04-02T13:12:20Z</time>
      </trkpt>
      <trkpt lat="44.85135" lon="-0.56831">
        <ele>-58.6</ele>
        <time>2018-04-02T13:12:26Z</time>
      </trkpt>
      <trkpt lat="44.85127" lon="-0.56836">
        <ele>-57.7</ele>
        <time>2018-04-02T13:12:33Z</time>
      </trkpt>
      <trkpt lat="44.85119" lon="-0.56839">
        <ele>-56.3</ele>
        <time>2018-04-02T13:12:41Z</time>
      </trkpt>
      <trkpt lat="44.85113" lon="-0.56846">
        <ele>-52.1</ele>
        <time>2018-04-02T13:12:47Z</time>
      </trkpt>
      <trkpt lat="44.85104" lon="-0.56848">
        <ele>-47</ele>
        <time>2018-04-02T13:12:54Z</time>
      </trkpt>
      <trkpt lat="44.85098" lon="-0.56855">
        <ele>-47.6</ele>
        <time>2018-04-02T13:13:00Z</time>
      </trkpt>
      <trkpt lat="44.85092" lon="-0.56862">
        <ele>-48.9</ele>
        <time>2018-04-02T13:13:06Z</time>
      </trkpt>
      <trkpt lat="44.85084" lon="-0.56866">
        <ele>-47.6</ele>
        <time>2018-04-02T13:13:13Z</time>
      </trkpt>
      <trkpt lat="44.85076" lon="-0.56872">
        <ele>-47.3</ele>
        <time>2018-04-02T13:13:20Z</time>
      </trkpt>
      <trkpt lat="44.85069" lon="-0.56874">
        <ele>-44.2</ele>
        <time>2018-04-02T13:13:26Z</time>
      </trkpt>
      <trkpt lat="44.85061" lon="-0.56876">
        <ele>-45.1</ele>
        <time>2018-04-02T13:13:32Z</time>
      </trkpt>
      <trkpt lat="44.85053" lon="-0.5688">
        <ele>-46.9</ele>
        <time>2018-04-02T13:13:39Z</time>
      </trkpt>
      <trkpt lat="44.85045" lon="-0.56882">
        <ele>-51.1</ele>
        <time>2018-04-02T13:13:46Z</time>
      </trkpt>
      <trkpt lat="44.85038" lon="-0.56889">
        <ele>-52.9</ele>
        <time>2018-04-02T13:13:54Z</time>
      </trkpt>
      <trkpt lat="44.85031" lon="-0.56895">
        <ele>-47.2</ele>
        <time>2018-04-02T13:14:00Z</time>
      </trkpt>
      <trkpt lat="44.85025" lon="-0.56901">
        <ele>-47.2</ele>
        <time>2018-04-02T13:14:06Z</time>
      </trkpt>
      <trkpt lat="44.85017" lon="-0.56906">
        <ele>-51.9</ele>
        <time>2018-04-02T13:14:14Z</time>
      </trkpt>
      <trkpt lat="44.85008" lon="-0.56911">
        <ele>-47.7</ele>
        <time>2018-04-02T13:14:22Z</time>
      </trkpt>
      <trkpt lat="44.85001" lon="-0.56917">
        <ele>-51.6</ele>
        <time>2018-04-02T13:14:30Z</time>
      </trkpt>
      <trkpt lat="44.84993" lon="-0.5692">
        <ele>-53.4</ele>
        <time>2018-04-02T13:14:37Z</time>
      </trkpt>
      <trkpt lat="44.84984" lon="-0.56923">
        <ele>-52</ele>
        <time>2018-04-02T13:14:44Z</time>
      </trkpt>
      <trkpt lat="44.84977" lon="-0.56928">
        <ele>-52.8</ele>
        <time>2018-04-02T13:14:51Z</time>
      </trkpt>
      <trkpt lat="44.84969" lon="-0.56933">
        <ele>-56.8</ele>
        <time>2018-04-02T13:14:59Z</time>
      </trkpt>
      <trkpt lat="44.84962" lon="-0.56939">
        <ele>-61.2</ele>
        <time>2018-04-02T13:15:07Z</time>
      </trkpt>
      <trkpt lat="44.84955" lon="-0.56947">
        <ele>-61.1</ele>
        <time>2018-04-02T13:15:14Z</time>
      </trkpt>
      <trkpt lat="44.84947" lon="-0.56948">
        <ele>-59.6</ele>
        <time>2018-04-02T13:15:20Z</time>
      </trkpt>
      <trkpt lat="44.84939" lon="-0.56952">
        <ele>-59.8</ele>
        <time>2018-04-02T13:15:28Z</time>
      </trkpt>
      <trkpt lat="44.84932" lon="-0.56958">
        <ele>-61.5</ele>
        <time>2018-04-02T13:15:35Z</time>
      </trkpt>
      <trkpt lat="44.84925" lon="-0.56964">
        <ele>-56.6</ele>
        <time>2018-04-02T13:15:41Z</time>
      </trkpt>
      <trkpt lat="44.84918" lon="-0.56969">
        <ele>-54.9</ele>
        <time>2018-04-02T13:15:48Z</time>
      </trkpt>
      <trkpt lat="44.8491" lon="-0.5697">
        <ele>-53.6</ele>
        <time>2018-04-02T13:15:54Z</time>
      </trkpt>
      <trkpt lat="44.84902" lon="-0.56971">
        <ele>-50.3</ele>
        <time>2018-04-02T13:16:00Z</time>
      </trkpt>
      <trkpt lat="44.84894" lon="-0.56969">
        <ele>-51.1</ele>
        <time>2018-04-02T13:16:06Z</time>
      </trkpt>
      <trkpt lat="44.84886" lon="-0.56969">
        <ele>-57.9</ele>
        <time>2018-04-02T13:16:14Z</time>
      </trkpt>
      <trkpt lat="44.84878" lon="-0.56975">
        <ele>-62.4</ele>
        <time>2018-04-02T13:16:23Z</time>
      </trkpt>
      <trkpt lat="44.8487" lon="-0.56976">
        <ele>-64.7</ele>
        <time>2018-04-02T13:16:30Z</time>
      </trkpt>
      <trkpt lat="44.84862" lon="-0.56977">
        <ele>-65.9</ele>
        <time>2018-04-02T13:16:37Z</time>
      </trkpt>
      <trkpt lat="44.84853" lon="-0.56977">
        <ele>-67.8</ele>
        <time>2018-04-02T13:16:46Z</time>
      </trkpt>
      <trkpt lat="44.84845" lon="-0.56979">
        <ele>-66.1</ele>
        <time>2018-04-02T13:16:52Z</time>
      </trkpt>
      <trkpt lat="44.84838" lon="-0.56979">
        <ele>-64.2</ele>
        <time>2018-04-02T13:16:57Z</time>
      </trkpt>
      <trkpt lat="44.84829" lon="-0.56981">
        <ele>-62.9</ele>
        <time>2018-04-02T13:17:03Z</time>
      </trkpt>
      <trkpt lat="44.84821" lon="-0.56983">
        <ele>-59.2</ele>
        <time>2018-04-02T13:17:08Z</time>
      </trkpt>
      <trkpt lat="44.84813" lon="-0.56985">
        <ele>-56.4</ele>
        <time>2018-04-02T13:17:15Z</time>
      </trkpt>
      <trkpt lat="44.84806" lon="-0.56985">
        <ele>-54.8</ele>
        <time>2018-04-02T13:17:21Z</time>
      </trkpt>
      <trkpt lat="44.84798" lon="-0.56985">
        <ele>-56</ele>
        <time>2018-04-02T13:17:27Z</time>
      </trkpt>
      <trkpt lat="44.8479" lon="-0.56989">
        <ele>-56.8</ele>
        <time>2018-04-02T13:17:33Z</time>
      </trkpt>
      <trkpt lat="44.84782" lon="-0.5699">
        <ele>-57.1</ele>
        <time>2018-04-02T13:17:40Z</time>
      </trkpt>
      <trkpt lat="44.84774" lon="-0.56991">
        <ele>-57.8</ele>
        <time>2018-04-02T13:17:46Z</time>
      </trkpt>
      <trkpt lat="44.84766" lon="-0.56993">
        <ele>-57.8</ele>
        <time>2018-04-02T13:17:52Z</time>
      </trkpt>
      <trkpt lat="44.84758" lon="-0.56993">
        <ele>-56.1</ele>
        <time>2018-04-02T13:17:58Z</time>
      </trkpt>
      <trkpt lat="44.84749" lon="-0.56997">
        <ele>-57.6</ele>
        <time>2018-04-02T13:18:05Z</time>
      </trkpt>
      <trkpt lat="44.84741" lon="-0.56999">
        <ele>-58</ele>
        <time>2018-04-02T13:18:12Z</time>
      </trkpt>
      <trkpt lat="44.84733" lon="-0.57">
        <ele>-58.5</ele>
        <time>2018-04-02T13:18:19Z</time>
      </trkpt>
      <trkpt lat="44.84724" lon="-0.57">
        <ele>-53.3</ele>
        <time>2018-04-02T13:18:26Z</time>
      </trkpt>
      <trkpt lat="44.84716" lon="-0.57001">
        <ele>-52.5</ele>
        <time>2018-04-02T13:18:33Z</time>
      </trkpt>
      <trkpt lat="44.84707" lon="-0.57001">
        <ele>-54.4</ele>
        <time>2018-04-02T13:18:41Z</time>
      </trkpt>
      <trkpt lat="44.84698" lon="-0.57002">
        <ele>-56.3</ele>
        <time>2018-04-02T13:18:48Z</time>
      </trkpt>
      <trkpt lat="44.8469" lon="-0.57005">
        <ele>-62.8</ele>
        <time>2018-04-02T13:18:58Z</time>
      </trkpt>
      <trkpt lat="44.84682" lon="-0.57007">
        <ele>-62.3</ele>
        <time>2018-04-02T13:19:03Z</time>
      </trkpt>
      <trkpt lat="44.84674" lon="-0.5701">
        <ele>-61.1</ele>
        <time>2018-04-02T13:19:08Z</time>
      </trkpt>
      <trkpt lat="44.84666" lon="-0.5701">
        <ele>-60.2</ele>
        <time>2018-04-02T13:19:14Z</time>
      </trkpt>
      <trkpt lat="44.84658" lon="-0.57011">
        <ele>-59.5</ele>
        <time>2018-04-02T13:19:20Z</time>
      </trkpt>
      <trkpt lat="44.84649" lon="-0.57009">
        <ele>-61.1</ele>
        <time>2018-04-02T13:19:27Z</time>
      </trkpt>
      <trkpt lat="44.84641" lon="-0.5701">
        <ele>-60.7</ele>
        <time>2018-04-02T13:19:34Z</time>
      </trkpt>
      <trkpt lat="44.84633" lon="-0.57011">
        <ele>-60.2</ele>
        <time>2018-04-02T13:19:41Z</time>
      </trkpt>
      <trkpt lat="44.84624" lon="-0.57012">
        <ele>-58.7</ele>
        <time>2018-04-02T13:19:48Z</time>
      </trkpt>
      <trkpt lat="44.84616" lon="-0.57011">
        <ele>-59.3</ele>
        <time>2018-04-02T13:19:55Z</time>
      </trkpt>
      <trkpt lat="44.84607" lon="-0.57009">
        <ele>-58.6</ele>
        <time>2018-04-02T13:20:02Z</time>
      </trkpt>
      <trkpt lat="44.84599" lon="-0.57006">
        <ele>-60.1</ele>
        <time>2018-04-02T13:20:10Z</time>
      </trkpt>
      <trkpt lat="44.84591" lon="-0.57002">
        <ele>-60.3</ele>
        <time>2018-04-02T13:20:17Z</time>
      </trkpt>
      <trkpt lat="44.84584" lon="-0.57">
        <ele>-63</ele>
        <time>2018-04-02T13:20:24Z</time>
      </trkpt>
      <trkpt lat="44.84575" lon="-0.57001">
        <ele>-61.1</ele>
        <time>2018-04-02T13:20:30Z</time>
      </trkpt>
      <trkpt lat="44.84567" lon="-0.57">
        <ele>-60.1</ele>
        <time>2018-04-02T13:20:36Z</time>
      </trkpt>
      <trkpt lat="44.84559" lon="-0.56998">
        <ele>-59.4</ele>
        <time>2018-04-02T13:20:42Z</time>
      </trkpt>
      <trkpt lat="44.84551" lon="-0.56998">
        <ele>-59.4</ele>
        <time>2018-04-02T13:20:49Z</time>
      </trkpt>
      <trkpt lat="44.84542" lon="-0.56996">
        <ele>-61.3</ele>
        <time>2018-04-02T13:20:57Z</time>
      </trkpt>
      <trkpt lat="44.84534" lon="-0.56993">
        <ele>-62.1</ele>
        <time>2018-04-02T13:21:05Z</time>
      </trkpt>
      <trkpt lat="44.84526" lon="-0.56991">
        <ele>-62.1</ele>
        <time>2018-04-02T13:21:12Z</time>
      </trkpt>
      <trkpt lat="44.84518" lon="-0.56989">
        <ele>-61.4</ele>
        <time>2018-04-02T13:21:19Z</time>
      </trkpt>
      <trkpt lat="44.84509" lon="-0.56986">
        <ele>-60.5</ele>
        <time>2018-04-02T13:21:26Z</time>
      </trkpt>
      <trkpt lat="44.84501" lon="-0.56985">
        <ele>-60.7</ele>
        <time>2018-04-02T13:21:33Z</time>
      </trkpt>
      <trkpt lat="44.84493" lon="-0.56983">
        <ele>-59.4</ele>
        <time>2018-04-02T13:21:39Z</time>
      </trkpt>
      <trkpt lat="44.84485" lon="-0.56981">
        <ele>-58.8</ele>
        <time>2018-04-02T13:21:45Z</time>
      </trkpt>
      <trkpt lat="44.84477" lon="-0.56977">
        <ele>-58.1</ele>
        <time>2018-04-02T13:21:52Z</time>
      </trkpt>
      <trkpt lat="44.84468" lon="-0.56975">
        <ele>-58.9</ele>
        <time>2018-04-02T13:22:00Z</time>
      </trkpt>
      <trkpt lat="44.8446" lon="-0.56974">
        <ele>-60.2</ele>
        <time>2018-04-02T13:22:08Z</time>
      </trkpt>
      <trkpt lat="44.84451" lon="-0.56974">
        <ele>-64.7</ele>
        <time>2018-04-02T13:22:18Z</time>
      </trkpt>
      <trkpt lat="44.84443" lon="-0.56971">
        <ele>-65.6</ele>
        <time>2018-04-02T13:22:26Z</time>
      </trkpt>
      <trkpt lat="44.84435" lon="-0.56969">
        <ele>-64.8</ele>
        <time>2018-04-02T13:22:33Z</time>
      </trkpt>
      <trkpt lat="44.84427" lon="-0.56967">
        <ele>-65.1</ele>
        <time>2018-04-02T13:22:40Z</time>
      </trkpt>
      <trkpt lat="44.84419" lon="-0.56963">
        <ele>-67</ele>
        <time>2018-04-02T13:22:48Z</time>
      </trkpt>
      <trkpt lat="44.8441" lon="-0.56962">
        <ele>-63.1</ele>
        <time>2018-04-02T13:22:56Z</time>
      </trkpt>
      <trkpt lat="44.84402" lon="-0.56961">
        <ele>-61.7</ele>
        <time>2018-04-02T13:23:03Z</time>
      </trkpt>
      <trkpt lat="44.84395" lon="-0.5696">
        <ele>-60</ele>
        <time>2018-04-02T13:23:08Z</time>
      </trkpt>
      <trkpt lat="44.84387" lon="-0.56957">
        <ele>-59.2</ele>
        <time>2018-04-02T13:23:14Z</time>
      </trkpt>
      <trkpt lat="44.84379" lon="-0.56955">
        <ele>-60</ele>
        <time>2018-04-02T13:23:22Z</time>
      </trkpt>
      <trkpt lat="44.84371" lon="-0.56951">
        <ele>-57.4</ele>
        <time>2018-04-02T13:23:29Z</time>
      </trkpt>
      <trkpt lat="44.84363" lon="-0.56948">
        <ele>-55.4</ele>
        <time>2018-04-02T13:23:36Z</time>
      </trkpt>
      <trkpt lat="44.84354" lon="-0.56946">
        <ele>-55.5</ele>
        <time>2018-04-02T13:23:43Z</time>
      </trkpt>
      <trkpt lat="44.84346" lon="-0.56945">
        <ele>-56.4</ele>
        <time>2018-04-02T13:23:51Z</time>
      </trkpt>
      <trkpt lat="44.84338" lon="-0.56942">
        <ele>-57.9</ele>
        <time>2018-04-02T13:23:58Z</time>
      </trkpt>
      <trkpt lat="44.8433" lon="-0.56938">
        <ele>-58.8</ele>
        <time>2018-04-02T13:24:06Z</time>
      </trkpt>
      <trkpt lat="44.84322" lon="-0.56935">
        <ele>-57.1</ele>
        <time>2018-04-02T13:24:13Z</time>
      </trkpt>
      <trkpt lat="44.84314" lon="-0.56932">
        <ele>-54.9</ele>
        <time>2018-04-02T13:24:20Z</time>
      </trkpt>
      <trkpt lat="44.84306" lon="-0.56928">
        <ele>-54.4</ele>
        <time>2018-04-02T13:24:27Z</time>
      </trkpt>
      <trkpt lat="44.84297" lon="-0.56924">
        <ele>-54.2</ele>
        <time>2018-04-02T13:24:35Z</time>
      </trkpt>
      <trkpt lat="44.84289" lon="-0.56921">
        <ele>-54.6</ele>
        <time>2018-04-02T13:24:42Z</time>
      </trkpt>
      <trkpt lat="44.84281" lon="-0.56916">
        <ele>-54.5</ele>
        <time>2018-04-02T13:24:50Z</time>
      </trkpt>
      <trkpt lat="44.84272" lon="-0.56911">
        <ele>-55.9</ele>
        <time>2018-04-02T13:24:58Z</time>
      </trkpt>
      <trkpt lat="44.84264" lon="-0.56907">
        <ele>-57.7</ele>
        <time>2018-04-02T13:25:06Z</time>
      </trkpt>
      <trkpt lat="44.84256" lon="-0.56902">
        <ele>-56.8</ele>
        <time>2018-04-02T13:25:14Z</time>
      </trkpt>
      <trkpt lat="44.84248" lon="-0.56898">
        <ele>-58.3</ele>
        <time>2018-04-02T13:25:21Z</time>
      </trkpt>
      <trkpt lat="44.84241" lon="-0.56892">
        <ele>-61.2</ele>
        <time>2018-04-02T13:25:29Z</time>
      </trkpt>
      <trkpt lat="44.84232" lon="-0.56888">
        <ele>-63</ele>
        <time>2018-04-02T13:25:38Z</time>
      </trkpt>
      <trkpt lat="44.84224" lon="-0.56887">
        <ele>-62.5</ele>
        <time>2018-04-02T13:25:45Z</time>
      </trkpt>
      <trkpt lat="44.84215" lon="-0.56885">
        <ele>-62.1</ele>
        <time>2018-04-02T13:25:52Z</time>
      </trkpt>
      <trkpt lat="44.84207" lon="-0.56884">
        <ele>-61.5</ele>
        <time>2018-04-02T13:25:58Z</time>
      </trkpt>
      <trkpt lat="44.84199" lon="-0.56881">
        <ele>-60.9</ele>
        <time>2018-04-02T13:26:05Z</time>
      </trkpt>
      <trkpt lat="44.84192" lon="-0.56877">
        <ele>-61.2</ele>
        <time>2018-04-02T13:26:11Z</time>
      </trkpt>
      <trkpt lat="44.84185" lon="-0.56873">
        <ele>-60.8</ele>
        <time>2018-04-02T13:26:17Z</time>
      </trkpt>
      <trkpt lat="44.84178" lon="-0.56869">
        <ele>-60.6</ele>
        <time>2018-04-02T13:26:23Z</time>
      </trkpt>
      <trkpt lat="44.8417" lon="-0.56865">
        <ele>-59.9</ele>
        <time>2018-04-02T13:26:29Z</time>
      </trkpt>
      <trkpt lat="44.84163" lon="-0.56862">
        <ele>-58.3</ele>
        <time>2018-04-02T13:26:35Z</time>
      </trkpt>
      <trkpt lat="44.84155" lon="-0.56859">
        <ele>-56.5</ele>
        <time>2018-04-02T13:26:41Z</time>
      </trkpt>
      <trkpt lat="44.84148" lon="-0.56853">
        <ele>-55.9</ele>
        <time>2018-04-02T13:26:47Z</time>
      </trkpt>
      <trkpt lat="44.8414" lon="-0.56848">
        <ele>-54.9</ele>
        <time>2018-04-02T13:26:55Z</time>
      </trkpt>
      <trkpt lat="44.84132" lon="-0.56845">
        <ele>-58.2</ele>
        <time>2018-04-02T13:27:02Z</time>
      </trkpt>
      <trkpt lat="44.84123" lon="-0.56842">
        <ele>-60.7</ele>
        <time>2018-04-02T13:27:10Z</time>
      </trkpt>
      <trkpt lat="44.84115" lon="-0.56839">
        <ele>-63.7</ele>
        <time>2018-04-02T13:27:18Z</time>
      </trkpt>
      <trkpt lat="44.84107" lon="-0.56834">
        <ele>-64.8</ele>
        <time>2018-04-02T13:27:25Z</time>
      </trkpt>
      <trkpt lat="44.841" lon="-0.56831">
        <ele>-67.2</ele>
        <time>2018-04-02T13:27:32Z</time>
      </trkpt>
      <trkpt lat="44.84092" lon="-0.56827">
        <ele>-68.3</ele>
        <time>2018-04-02T13:27:39Z</time>
      </trkpt>
      <trkpt lat="44.84084" lon="-0.56825">
        <ele>-69.5</ele>
        <time>2018-04-02T13:27:46Z</time>
      </trkpt>
      <trkpt lat="44.84076" lon="-0.56823">
        <ele>-68</ele>
        <time>2018-04-02T13:27:53Z</time>
      </trkpt>
      <trkpt lat="44.84068" lon="-0.56819">
        <ele>-66.5</ele>
        <time>2018-04-02T13:27:59Z</time>
      </trkpt>
      <trkpt lat="44.8406" lon="-0.56814">
        <ele>-64.7</ele>
        <time>2018-04-02T13:28:06Z</time>
      </trkpt>
      <trkpt lat="44.84053" lon="-0.5681">
        <ele>-62.3</ele>
        <time>2018-04-02T13:28:11Z</time>
      </trkpt>
      <trkpt lat="44.84045" lon="-0.56807">
        <ele>-59.9</ele>
        <time>2018-04-02T13:28:17Z</time>
      </trkpt>
      <trkpt lat="44.84038" lon="-0.56802">
        <ele>-59.4</ele>
        <time>2018-04-02T13:28:24Z</time>
      </trkpt>
      <trkpt lat="44.8403" lon="-0.56795">
        <ele>-59.7</ele>
        <time>2018-04-02T13:28:30Z</time>
      </trkpt>
      <trkpt lat="44.84022" lon="-0.56791">
        <ele>-58.3</ele>
        <time>2018-04-02T13:28:36Z</time>
      </trkpt>
      <trkpt lat="44.84014" lon="-0.56785">
        <ele>-57.2</ele>
        <time>2018-04-02T13:28:44Z</time>
      </trkpt>
      <trkpt lat="44.84007" lon="-0.56779">
        <ele>-57.4</ele>
        <time>2018-04-02T13:28:51Z</time>
      </trkpt>
      <trkpt lat="44.83999" lon="-0.56774">
        <ele>-56.7</ele>
        <time>2018-04-02T13:28:59Z</time>
      </trkpt>
      <trkpt lat="44.83991" lon="-0.56768">
        <ele>-56.4</ele>
        <time>2018-04-02T13:29:06Z</time>
      </trkpt>
      <trkpt lat="44.83984" lon="-0.56763">
        <ele>-54.9</ele>
        <time>2018-04-02T13:29:13Z</time>
      </trkpt>
      <trkpt lat="44.83977" lon="-0.56757">
        <ele>-55.7</ele>
        <time>2018-04-02T13:29:19Z</time>
      </trkpt>
      <trkpt lat="44.83969" lon="-0.56752">
        <ele>-55.4</ele>
        <time>2018-04-02T13:29:26Z</time>
      </trkpt>
      <trkpt lat="44.83962" lon="-0.56747">
        <ele>-56.2</ele>
        <time>2018-04-02T13:29:32Z</time>
      </trkpt>
      <trkpt lat="44.83954" lon="-0.56741">
        <ele>-57.3</ele>
        <time>2018-04-02T13:29:39Z</time>
      </trkpt>
      <trkpt lat="44.83946" lon="-0.56737">
        <ele>-58.6</ele>
        <time>2018-04-02T13:29:47Z</time>
      </trkpt>
      <trkpt lat="44.83938" lon="-0.56733">
        <ele>-58</ele>
        <time>2018-04-02T13:29:53Z</time>
      </trkpt>
      <trkpt lat="44.8393" lon="-0.56729">
        <ele>-58</ele>
        <time>2018-04-02T13:29:59Z</time>
      </trkpt>
      <trkpt lat="44.83922" lon="-0.56724">
        <ele>-56.7</ele>
        <time>2018-04-02T13:30:05Z</time>
      </trkpt>
      <trkpt lat="44.83914" lon="-0.5672">
        <ele>-55.2</ele>
        <time>2018-04-02T13:30:11Z</time>
      </trkpt>
      <trkpt lat="44.83906" lon="-0.56716">
        <ele>-53.8</ele>
        <time>2018-04-02T13:30:18Z</time>
      </trkpt>
      <trkpt lat="44.83899" lon="-0.56712">
        <ele>-53.8</ele>
        <time>2018-04-02T13:30:24Z</time>
      </trkpt>
      <trkpt lat="44.83891" lon="-0.56708">
        <ele>-54.6</ele>
        <time>2018-04-02T13:30:32Z</time>
      </trkpt>
      <trkpt lat="44.83883" lon="-0.56704">
        <ele>-54.3</ele>
        <time>2018-04-02T13:30:39Z</time>
      </trkpt>
      <trkpt lat="44.83875" lon="-0.567">
        <ele>-58.1</ele>
        <time>2018-04-02T13:30:48Z</time>
      </trkpt>
      <trkpt lat="44.83867" lon="-0.56698">
        <ele>-60.7</ele>
        <time>2018-04-02T13:30:55Z</time>
      </trkpt>
      <trkpt lat="44.83859" lon="-0.56698">
        <ele>-61.2</ele>
        <time>2018-04-02T13:31:01Z</time>
      </trkpt>
      <trkpt lat="44.8385" lon="-0.56699">
        <ele>-59.6</ele>
        <time>2018-04-02T13:31:07Z</time>
      </trkpt>
      <trkpt lat="44.83842" lon="-0.56696">
        <ele>-57.7</ele>
        <time>2018-04-02T13:31:12Z</time>
      </trkpt>
      <trkpt lat="44.83834" lon="-0.56694">
        <ele>-56.2</ele>
        <time>2018-04-02T13:31:18Z</time>
      </trkpt>
      <trkpt lat="44.83826" lon="-0.56688">
        <ele>-55.2</ele>
        <time>2018-04-02T13:31:24Z</time>
      </trkpt>
      <trkpt lat="44.8382" lon="-0.56681">
        <ele>-54.8</ele>
        <time>2018-04-02T13:31:30Z</time>
      </trkpt>
      <trkpt lat="44.83814" lon="-0.56674">
        <ele>-53</ele>
        <time>2018-04-02T13:31:44Z</time>
      </trkpt>
      <trkpt lat="44.83807" lon="-0.56667">
        <ele>-55.8</ele>
        <time>2018-04-02T13:31:53Z</time>
      </trkpt>
      <trkpt lat="44.83801" lon="-0.56658">
        <ele>-56</ele>
        <time>2018-04-02T13:32:01Z</time>
      </trkpt>
      <trkpt lat="44.83796" lon="-0.56651">
        <ele>-56.8</ele>
        <time>2018-04-02T13:32:09Z</time>
      </trkpt>
      <trkpt lat="44.83789" lon="-0.56643">
        <ele>-55.9</ele>
        <time>2018-04-02T13:32:16Z</time>
      </trkpt>
      <trkpt lat="44.83783" lon="-0.56636">
        <ele>-54.9</ele>
        <time>2018-04-02T13:32:23Z</time>
      </trkpt>
      <trkpt lat="44.83777" lon="-0.56628">
        <ele>-54.6</ele>
        <time>2018-04-02T13:32:29Z</time>
      </trkpt>
      <trkpt lat="44.83771" lon="-0.56621">
        <ele>-55.1</ele>
        <time>2018-04-02T13:32:36Z</time>
      </trkpt>
      <trkpt lat="44.83765" lon="-0.56613">
        <ele>-54.7</ele>
        <time>2018-04-02T13:32:42Z</time>
      </trkpt>
      <trkpt lat="44.83759" lon="-0.56604">
        <ele>-53</ele>
        <time>2018-04-02T13:32:48Z</time>
      </trkpt>
      <trkpt lat="44.83753" lon="-0.56597">
        <ele>-52.1</ele>
        <time>2018-04-02T13:32:54Z</time>
      </trkpt>
      <trkpt lat="44.83747" lon="-0.56589">
        <ele>-50.8</ele>
        <time>2018-04-02T13:33:00Z</time>
      </trkpt>
      <trkpt lat="44.8374" lon="-0.56582">
        <ele>-50.6</ele>
        <time>2018-04-02T13:33:08Z</time>
      </trkpt>
      <trkpt lat="44.83734" lon="-0.56574">
        <ele>-49</ele>
        <time>2018-04-02T13:33:14Z</time>
      </trkpt>
      <trkpt lat="44.83727" lon="-0.56567">
        <ele>-47.2</ele>
        <time>2018-04-02T13:33:21Z</time>
      </trkpt>
      <trkpt lat="44.8372" lon="-0.56559">
        <ele>-49</ele>
        <time>2018-04-02T13:33:29Z</time>
      </trkpt>
      <trkpt lat="44.83714" lon="-0.5655">
        <ele>-52.3</ele>
        <time>2018-04-02T13:33:39Z</time>
      </trkpt>
      <trkpt lat="44.83709" lon="-0.56539">
        <ele>-53.3</ele>
        <time>2018-04-02T13:33:48Z</time>
      </trkpt>
      <trkpt lat="44.83703" lon="-0.56532">
        <ele>-54.5</ele>
        <time>2018-04-02T13:33:55Z</time>
      </trkpt>
      <trkpt lat="44.83698" lon="-0.56522">
        <ele>-53.8</ele>
        <time>2018-04-02T13:34:03Z</time>
      </trkpt>
      <trkpt lat="44.837" lon="-0.5651">
        <ele>-57.2</ele>
        <time>2018-04-02T13:34:13Z</time>
      </trkpt>
      <trkpt lat="44.83705" lon="-0.56501">
        <ele>-58.4</ele>
        <time>2018-04-02T13:34:20Z</time>
      </trkpt>
      <trkpt lat="44.83708" lon="-0.5649">
        <ele>-58.3</ele>
        <time>2018-04-02T13:34:27Z</time>
      </trkpt>
      <trkpt lat="44.83712" lon="-0.56479">
        <ele>-60.2</ele>
        <time>2018-04-02T13:34:34Z</time>
      </trkpt>
      <trkpt lat="44.83718" lon="-0.5647">
        <ele>-59.1</ele>
        <time>2018-04-02T13:34:40Z</time>
      </trkpt>
      <trkpt lat="44.83722" lon="-0.5646">
        <ele>-59.7</ele>
        <time>2018-04-02T13:34:46Z</time>
      </trkpt>
      <trkpt lat="44.83727" lon="-0.5645">
        <ele>-58.1</ele>
        <time>2018-04-02T13:34:53Z</time>
      </trkpt>
      <trkpt lat="44.83732" lon="-0.5644">
        <ele>-58.1</ele>
        <time>2018-04-02T13:35:01Z</time>
      </trkpt>
      <trkpt lat="44.83738" lon="-0.56432">
        <ele>-57.8</ele>
        <time>2018-04-02T13:35:08Z</time>
      </trkpt>
      <trkpt lat="44.83744" lon="-0.56422">
        <ele>-60.1</ele>
        <time>2018-04-02T13:35:16Z</time>
      </trkpt>
      <trkpt lat="44.83749" lon="-0.56413">
        <ele>-60.8</ele>
        <time>2018-04-02T13:35:23Z</time>
      </trkpt>
      <trkpt lat="44.83753" lon="-0.56402">
        <ele>-62.9</ele>
        <time>2018-04-02T13:35:32Z</time>
      </trkpt>
      <trkpt lat="44.83759" lon="-0.56393">
        <ele>-63.3</ele>
        <time>2018-04-02T13:35:39Z</time>
      </trkpt>
      <trkpt lat="44.83765" lon="-0.56385">
        <ele>-64.1</ele>
        <time>2018-04-02T13:35:45Z</time>
      </trkpt>
      <trkpt lat="44.83773" lon="-0.56376">
        <ele>-55.9</ele>
        <time>2018-04-02T13:35:50Z</time>
      </trkpt>
      <trkpt lat="44.83779" lon="-0.56367">
        <ele>-58.4</ele>
        <time>2018-04-02T13:35:57Z</time>
      </trkpt>
      <trkpt lat="44.83783" lon="-0.56359">
        <ele>-59.7</ele>
        <time>2018-04-02T13:36:03Z</time>
      </trkpt>
      <trkpt lat="44.8379" lon="-0.5635">
        <ele>-58.9</ele>
        <time>2018-04-02T13:36:09Z</time>
      </trkpt>
      <trkpt lat="44.83794" lon="-0.56341">
        <ele>-59.3</ele>
        <time>2018-04-02T13:36:15Z</time>
      </trkpt>
      <trkpt lat="44.83801" lon="-0.56333">
        <ele>-59.8</ele>
        <time>2018-04-02T13:36:22Z</time>
      </trkpt>
      <trkpt lat="44.83807" lon="-0.56324">
        <ele>-56.6</ele>
        <time>2018-04-02T13:36:28Z</time>
      </trkpt>
      <trkpt lat="44.83813" lon="-0.56316">
        <ele>-54.5</ele>
        <time>2018-04-02T13:36:33Z</time>
      </trkpt>
      <trkpt lat="44.83818" lon="-0.56307">
        <ele>-57.1</ele>
        <time>2018-04-02T13:36:41Z</time>
      </trkpt>
      <trkpt lat="44.83823" lon="-0.56297">
        <ele>-58.6</ele>
        <time>2018-04-02T13:36:49Z</time>
      </trkpt>
      <trkpt lat="44.83829" lon="-0.56289">
        <ele>-60.2</ele>
        <time>2018-04-02T13:36:56Z</time>
      </trkpt>
      <trkpt lat="44.83836" lon="-0.5628">
        <ele>-57.7</ele>
        <time>2018-04-02T13:37:01Z</time>
      </trkpt>
      <trkpt lat="44.83841" lon="-0.56273">
        <ele>-56.6</ele>
        <time>2018-04-02T13:37:06Z</time>
      </trkpt>
      <trkpt lat="44.83846" lon="-0.56265">
        <ele>-55.9</ele>
        <time>2018-04-02T13:37:12Z</time>
      </trkpt>
      <trkpt lat="44.8385" lon="-0.56254">
        <ele>-57.6</ele>
        <time>2018-04-02T13:37:20Z</time>
      </trkpt>
      <trkpt lat="44.83855" lon="-0.56246">
        <ele>-59.9</ele>
        <time>2018-04-02T13:37:27Z</time>
      </trkpt>
      <trkpt lat="44.8386" lon="-0.56236">
        <ele>-60</ele>
        <time>2018-04-02T13:37:34Z</time>
      </trkpt>
      <trkpt lat="44.83867" lon="-0.56229">
        <ele>-60.8</ele>
        <time>2018-04-02T13:37:40Z</time>
      </trkpt>
      <trkpt lat="44.83871" lon="-0.5622">
        <ele>-61.5</ele>
        <time>2018-04-02T13:37:46Z</time>
      </trkpt>
      <trkpt lat="44.83876" lon="-0.56211">
        <ele>-56.5</ele>
        <time>2018-04-02T13:37:51Z</time>
      </trkpt>
      <trkpt lat="44.83882" lon="-0.56201">
        <ele>-52.7</ele>
        <time>2018-04-02T13:37:58Z</time>
      </trkpt>
      <trkpt lat="44.83887" lon="-0.56192">
        <ele>-54.2</ele>
        <time>2018-04-02T13:38:05Z</time>
      </trkpt>
      <trkpt lat="44.83892" lon="-0.56183">
        <ele>-54.7</ele>
        <time>2018-04-02T13:38:12Z</time>
      </trkpt>
      <trkpt lat="44.83898" lon="-0.56173">
        <ele>-56.2</ele>
        <time>2018-04-02T13:38:19Z</time>
      </trkpt>
      <trkpt lat="44.83903" lon="-0.56166">
        <ele>-56.1</ele>
        <time>2018-04-02T13:38:24Z</time>
      </trkpt>
      <trkpt lat="44.83909" lon="-0.56158">
        <ele>-55.9</ele>
        <time>2018-04-02T13:38:30Z</time>
      </trkpt>
      <trkpt lat="44.83914" lon="-0.56149">
        <ele>-55.5</ele>
        <time>2018-04-02T13:38:36Z</time>
      </trkpt>
      <trkpt lat="44.83919" lon="-0.5614">
        <ele>-61.3</ele>
        <time>2018-04-02T13:38:45Z</time>
      </trkpt>
      <trkpt lat="44.83924" lon="-0.56131">
        <ele>-62.8</ele>
        <time>2018-04-02T13:38:52Z</time>
      </trkpt>
      <trkpt lat="44.8393" lon="-0.56123">
        <ele>-60.6</ele>
        <time>2018-04-02T13:38:57Z</time>
      </trkpt>
      <trkpt lat="44.83936" lon="-0.56116">
        <ele>-59.4</ele>
        <time>2018-04-02T13:39:02Z</time>
      </trkpt>
      <trkpt lat="44.83941" lon="-0.56107">
        <ele>-59.6</ele>
        <time>2018-04-02T13:39:08Z</time>
      </trkpt>
      <trkpt lat="44.83944" lon="-0.56097">
        <ele>-59.4</ele>
        <time>2018-04-02T13:39:15Z</time>
      </trkpt>
      <trkpt lat="44.8395" lon="-0.56088">
        <ele>-60.1</ele>
        <time>2018-04-02T13:39:21Z</time>
      </trkpt>
      <trkpt lat="44.83956" lon="-0.5608">
        <ele>-60.3</ele>
        <time>2018-04-02T13:39:27Z</time>
      </trkpt>
      <trkpt lat="44.83961" lon="-0.56072">
        <ele>-62.2</ele>
        <time>2018-04-02T13:39:33Z</time>
      </trkpt>
      <trkpt lat="44.83968" lon="-0.56064">
        <ele>-58.2</ele>
        <time>2018-04-02T13:39:38Z</time>
      </trkpt>
      <trkpt lat="44.83973" lon="-0.56054">
        <ele>-59.8</ele>
        <time>2018-04-02T13:39:46Z</time>
      </trkpt>
      <trkpt lat="44.83978" lon="-0.56044">
        <ele>-60.3</ele>
        <time>2018-04-02T13:39:53Z</time>
      </trkpt>
      <trkpt lat="44.83976" lon="-0.56033">
        <ele>-57.4</ele>
        <time>2018-04-02T13:40:00Z</time>
      </trkpt>
      <trkpt lat="44.8397" lon="-0.56025">
        <ele>-56.3</ele>
        <time>2018-04-02T13:40:06Z</time>
      </trkpt>
      <trkpt lat="44.83965" lon="-0.56016">
        <ele>-56.8</ele>
        <time>2018-04-02T13:40:13Z</time>
      </trkpt>
      <trkpt lat="44.83958" lon="-0.56008">
        <ele>-57.8</ele>
        <time>2018-04-02T13:40:22Z</time>
      </trkpt>
      <trkpt lat="44.83953" lon="-0.55999">
        <ele>-55.8</ele>
        <time>2018-04-02T13:40:29Z</time>
      </trkpt>
      <trkpt lat="44.83948" lon="-0.55991">
        <ele>-54</ele>
        <time>2018-04-02T13:40:35Z</time>
      </trkpt>
      <trkpt lat="44.83942" lon="-0.55983">
        <ele>-52.2</ele>
        <time>2018-04-02T13:40:41Z</time>
      </trkpt>
      <trkpt lat="44.83935" lon="-0.55975">
        <ele>-52.3</ele>
        <time>2018-04-02T13:40:47Z</time>
      </trkpt>
      <trkpt lat="44.8393" lon="-0.55967">
        <ele>-53.4</ele>
        <time>2018-04-02T13:40:53Z</time>
      </trkpt>
      <trkpt lat="44.83925" lon="-0.55959">
        <ele>-49.6</ele>
        <time>2018-04-02T13:40:58Z</time>
      </trkpt>
      <trkpt lat="44.83916" lon="-0.55954">
        <ele>-47.5</ele>
        <time>2018-04-02T13:41:13Z</time>
      </trkpt>
      <trkpt lat="44.83909" lon="-0.55952">
        <ele>-49.7</ele>
        <time>2018-04-02T13:41:23Z</time>
      </trkpt>
      <trkpt lat="44.83902" lon="-0.55946">
        <ele>-50.7</ele>
        <time>2018-04-02T13:41:30Z</time>
      </trkpt>
      <trkpt lat="44.83897" lon="-0.55936">
        <ele>-50.9</ele>
        <time>2018-04-02T13:41:40Z</time>
      </trkpt>
      <trkpt lat="44.83896" lon="-0.55928">
        <ele>-53</ele>
        <time>2018-04-02T13:41:49Z</time>
      </trkpt>
    </trkseg>
  </trk>
</gpx>